PWSweather.com
Personal Weather Stations
Station Observations
KILASHKU1
Ashkum, IL

Ashkum, IL

Lat: 40.8779862, Lon: -87.846552

Elevation: 626

Station Type: Davis Vantage Pro 2

High Low Average
Temperature 38.0°F3.3°C 6.8°F-14.0°C 27.0°F-2.8°C
Dew Point 37.5°F3.1°C 1.7°F-16.8°C 24.7°F-4.1°C
Winds 26.0 mph 41.8 kmh 3.0 mph 4.8 kmh 15.0 mph SW24.1 kmh SW
Wind Gusts 35.0 mph56.3 kmh 6.0 mph9.7 kmh 23.0 mph37.0 kmh
Humidity 98% 77% 91%
Pressure 30.20 in1022.7 mb 29.77 in1008.1 mb -
Precipitation 0.77 in19.6 mm - -
Hour Temp Dew Point Humidity Winds Wind Gusts Pressure Precip Precip Rate Daily Precip Total
12:00 AM 30.8°F-0.7°C 29.0°F-1.7°C 93% 4.0 mph SE6.4 kmh SE 8.0 mph12.9 kmh 30.15 in1021.0 mb 0.00 in0.0 mm 0.00 in0.0 mm 0.00 in0.0 mm
12:02 AM 30.8°F-0.7°C 29.0°F-1.7°C 93% 4.0 mph SE6.4 kmh SE 8.0 mph12.9 kmh 30.14 in1020.7 mb 0.00 in0.0 mm 0.00 in0.0 mm 0.00 in0.0 mm
12:04 AM 30.8°F-0.7°C 29.0°F-1.7°C 93% 4.0 mph ESE6.4 kmh ESE 8.0 mph12.9 kmh 30.14 in1020.7 mb 0.00 in0.0 mm 0.00 in0.0 mm 0.00 in0.0 mm
12:06 AM 30.8°F-0.7°C 29.0°F-1.7°C 93% 4.0 mph ESE6.4 kmh ESE 8.0 mph12.9 kmh 30.13 in1020.3 mb 0.00 in0.0 mm 0.00 in0.0 mm 0.00 in0.0 mm
12:08 AM 30.8°F-0.7°C 29.0°F-1.7°C 93% 4.0 mph SE6.4 kmh SE 8.0 mph12.9 kmh 30.13 in1020.3 mb 0.00 in0.0 mm 0.00 in0.0 mm 0.00 in0.0 mm
12:10 AM 30.7°F-0.7°C 28.9°F-1.7°C 93% 4.0 mph SE6.4 kmh SE 8.0 mph12.9 kmh 30.13 in1020.3 mb 0.00 in0.0 mm 0.00 in0.0 mm 0.00 in0.0 mm
12:12 AM 30.7°F-0.7°C 28.9°F-1.7°C 93% 4.0 mph SE6.4 kmh SE 8.0 mph12.9 kmh 30.13 in1020.3 mb 0.00 in0.0 mm 0.00 in0.0 mm 0.00 in0.0 mm
12:14 AM 30.8°F-0.7°C 29.0°F-1.7°C 93% 4.0 mph SE6.4 kmh SE 8.0 mph12.9 kmh 30.12 in1020.0 mb 0.00 in0.0 mm 0.00 in0.0 mm 0.00 in0.0 mm
12:16 AM 30.8°F-0.7°C 29.0°F-1.7°C 93% 4.0 mph SE6.4 kmh SE 8.0 mph12.9 kmh 30.12 in1020.0 mb 0.00 in0.0 mm 0.00 in0.0 mm 0.00 in0.0 mm
12:18 AM 30.8°F-0.7°C 29.3°F-1.5°C 94% 4.0 mph ESE6.4 kmh ESE 8.0 mph12.9 kmh 30.12 in1020.0 mb 0.00 in0.0 mm 0.00 in0.0 mm 0.00 in0.0 mm
12:20 AM 30.8°F-0.7°C 29.0°F-1.7°C 93% 4.0 mph ESE6.4 kmh ESE 8.0 mph12.9 kmh 30.12 in1020.0 mb 0.00 in0.0 mm 0.00 in0.0 mm 0.00 in0.0 mm
12:22 AM 30.8°F-0.7°C 29.3°F-1.5°C 94% 4.0 mph SE6.4 kmh SE 7.0 mph11.3 kmh 30.11 in1019.6 mb 0.00 in0.0 mm 0.00 in0.0 mm 0.00 in0.0 mm
12:24 AM 30.8°F-0.7°C 29.3°F-1.5°C 94% 4.0 mph SE6.4 kmh SE 7.0 mph11.3 kmh 30.11 in1019.6 mb 0.00 in0.0 mm 0.00 in0.0 mm 0.00 in0.0 mm
12:26 AM 30.8°F-0.7°C 29.3°F-1.5°C 94% 4.0 mph SE6.4 kmh SE 7.0 mph11.3 kmh 30.11 in1019.6 mb 0.00 in0.0 mm 0.00 in0.0 mm 0.00 in0.0 mm
12:28 AM 30.9°F-0.6°C 29.4°F-1.4°C 94% 4.0 mph SE6.4 kmh SE 7.0 mph11.3 kmh 30.11 in1019.6 mb 0.00 in0.0 mm 0.00 in0.0 mm 0.00 in0.0 mm
12:30 AM 30.9°F-0.6°C 29.4°F-1.4°C 94% 4.0 mph SE6.4 kmh SE 7.0 mph11.3 kmh 30.11 in1019.6 mb 0.00 in0.0 mm 0.00 in0.0 mm 0.00 in0.0 mm
12:32 AM 31.0°F-0.6°C 29.5°F-1.4°C 94% 4.0 mph SE6.4 kmh SE 7.0 mph11.3 kmh 30.11 in1019.6 mb 0.00 in0.0 mm 0.00 in0.0 mm 0.00 in0.0 mm
12:34 AM 31.0°F-0.6°C 29.5°F-1.4°C 94% 3.0 mph SE4.8 kmh SE 7.0 mph11.3 kmh 30.11 in1019.6 mb 0.00 in0.0 mm 0.00 in0.0 mm 0.00 in0.0 mm
12:36 AM 31.0°F-0.6°C 29.5°F-1.4°C 94% 3.0 mph SE4.8 kmh SE 7.0 mph11.3 kmh 30.10 in1019.3 mb 0.00 in0.0 mm 0.00 in0.0 mm 0.00 in0.0 mm
12:38 AM 31.1°F-0.5°C 29.6°F-1.3°C 94% 3.0 mph SE4.8 kmh SE 8.0 mph12.9 kmh 30.10 in1019.3 mb 0.00 in0.0 mm 0.00 in0.0 mm 0.00 in0.0 mm
12:40 AM 31.1°F-0.5°C 29.6°F-1.3°C 94% 3.0 mph SE4.8 kmh SE 8.0 mph12.9 kmh 30.10 in1019.3 mb 0.00 in0.0 mm 0.00 in0.0 mm 0.00 in0.0 mm
12:42 AM 31.2°F-0.4°C 29.7°F-1.3°C 94% 4.0 mph SE6.4 kmh SE 10.0 mph16.1 kmh 30.09 in1019.0 mb 0.00 in0.0 mm 0.00 in0.0 mm 0.00 in0.0 mm
12:44 AM 31.3°F-0.4°C 29.8°F-1.2°C 94% 4.0 mph SE6.4 kmh SE 10.0 mph16.1 kmh 30.09 in1019.0 mb 0.00 in0.0 mm 0.00 in0.0 mm 0.00 in0.0 mm
12:46 AM 31.4°F-0.3°C 29.9°F-1.2°C 94% 5.0 mph SE8.0 kmh SE 10.0 mph16.1 kmh 30.08 in1018.6 mb 0.00 in0.0 mm 0.00 in0.0 mm 0.00 in0.0 mm
12:48 AM 31.4°F-0.3°C 29.9°F-1.2°C 94% 5.0 mph SE8.0 kmh SE 10.0 mph16.1 kmh 30.08 in1018.6 mb 0.00 in0.0 mm 0.00 in0.0 mm 0.00 in0.0 mm
12:50 AM 31.4°F-0.3°C 29.9°F-1.2°C 94% 4.0 mph SE6.4 kmh SE 10.0 mph16.1 kmh 30.08 in1018.6 mb 0.00 in0.0 mm 0.00 in0.0 mm 0.00 in0.0 mm
12:52 AM 31.4°F-0.3°C 29.9°F-1.2°C 94% 4.0 mph SE6.4 kmh SE 8.0 mph12.9 kmh 30.07 in1018.3 mb 0.00 in0.0 mm 0.00 in0.0 mm 0.00 in0.0 mm
12:54 AM 31.4°F-0.3°C 29.9°F-1.2°C 94% 4.0 mph ESE6.4 kmh ESE 8.0 mph12.9 kmh 30.06 in1017.9 mb 0.00 in0.0 mm 0.00 in0.0 mm 0.00 in0.0 mm
12:56 AM 31.4°F-0.3°C 29.9°F-1.2°C 94% 4.0 mph ESE6.4 kmh ESE 8.0 mph12.9 kmh 30.06 in1017.9 mb 0.00 in0.0 mm 0.00 in0.0 mm 0.00 in0.0 mm
12:58 AM 31.4°F-0.3°C 29.9°F-1.2°C 94% 4.0 mph SE6.4 kmh SE 10.0 mph16.1 kmh 30.06 in1017.9 mb 0.00 in0.0 mm 0.00 in0.0 mm 0.00 in0.0 mm
01:00 AM 31.4°F-0.3°C 29.9°F-1.2°C 94% 4.0 mph ESE6.4 kmh ESE 10.0 mph16.1 kmh 30.06 in1017.9 mb 0.00 in0.0 mm 0.00 in0.0 mm 0.00 in0.0 mm
01:02 AM 31.4°F-0.3°C 29.9°F-1.2°C 94% 4.0 mph SE6.4 kmh SE 10.0 mph16.1 kmh 30.06 in1017.9 mb 0.00 in0.0 mm 0.00 in0.0 mm 0.00 in0.0 mm
01:04 AM 31.4°F-0.3°C 29.9°F-1.2°C 94% 4.0 mph SE6.4 kmh SE 10.0 mph16.1 kmh 30.06 in1017.9 mb 0.00 in0.0 mm 0.00 in0.0 mm 0.00 in0.0 mm
01:06 AM 31.4°F-0.3°C 29.9°F-1.2°C 94% 4.0 mph SE6.4 kmh SE 10.0 mph16.1 kmh 30.06 in1017.9 mb 0.00 in0.0 mm 0.00 in0.0 mm 0.00 in0.0 mm
01:08 AM 31.4°F-0.3°C 29.9°F-1.2°C 94% 4.0 mph SE6.4 kmh SE 7.0 mph11.3 kmh 30.06 in1017.9 mb 0.00 in0.0 mm 0.00 in0.0 mm 0.00 in0.0 mm
01:10 AM 31.4°F-0.3°C 29.9°F-1.2°C 94% 4.0 mph SE6.4 kmh SE 7.0 mph11.3 kmh 30.06 in1017.9 mb 0.00 in0.0 mm 0.00 in0.0 mm 0.00 in0.0 mm
01:12 AM 31.4°F-0.3°C 29.9°F-1.2°C 94% 4.0 mph SE6.4 kmh SE 7.0 mph11.3 kmh 30.06 in1017.9 mb 0.00 in0.0 mm 0.00 in0.0 mm 0.00 in0.0 mm
01:14 AM 31.4°F-0.3°C 29.9°F-1.2°C 94% 4.0 mph SE6.4 kmh SE 7.0 mph11.3 kmh 30.06 in1017.9 mb 0.00 in0.0 mm 0.00 in0.0 mm 0.00 in0.0 mm
01:16 AM 31.4°F-0.3°C 29.9°F-1.2°C 94% 4.0 mph SE6.4 kmh SE 7.0 mph11.3 kmh 30.05 in1017.6 mb 0.00 in0.0 mm 0.00 in0.0 mm 0.00 in0.0 mm
01:18 AM 31.4°F-0.3°C 29.9°F-1.2°C 94% 4.0 mph SE6.4 kmh SE 8.0 mph12.9 kmh 30.06 in1017.9 mb 0.00 in0.0 mm 0.00 in0.0 mm 0.00 in0.0 mm
01:20 AM 31.5°F-0.3°C 30.0°F-1.1°C 94% 4.0 mph SE6.4 kmh SE 9.0 mph14.5 kmh 30.06 in1017.9 mb 0.00 in0.0 mm 0.00 in0.0 mm 0.00 in0.0 mm
01:22 AM 31.5°F-0.3°C 30.0°F-1.1°C 94% 4.0 mph SE6.4 kmh SE 9.0 mph14.5 kmh 30.06 in1017.9 mb 0.00 in0.0 mm 0.00 in0.0 mm 0.00 in0.0 mm
01:24 AM 31.6°F-0.2°C 30.1°F-1.1°C 94% 5.0 mph SE8.0 kmh SE 9.0 mph14.5 kmh 30.05 in1017.6 mb 0.00 in0.0 mm 0.00 in0.0 mm 0.00 in0.0 mm
01:26 AM 31.6°F-0.2°C 30.3°F-0.9°C 95% 5.0 mph SE8.0 kmh SE 9.0 mph14.5 kmh 30.05 in1017.6 mb 0.00 in0.0 mm 0.00 in0.0 mm 0.00 in0.0 mm
01:28 AM 31.6°F-0.2°C 30.3°F-0.9°C 95% 5.0 mph SE8.0 kmh SE 9.0 mph14.5 kmh 30.05 in1017.6 mb 0.00 in0.0 mm 0.00 in0.0 mm 0.00 in0.0 mm
01:30 AM 31.6°F-0.2°C 30.3°F-0.9°C 95% 5.0 mph SE8.0 kmh SE 9.0 mph14.5 kmh 30.05 in1017.6 mb 0.00 in0.0 mm 0.00 in0.0 mm 0.00 in0.0 mm
01:32 AM 31.7°F-0.2°C 30.4°F-0.9°C 95% 4.0 mph SE6.4 kmh SE 9.0 mph14.5 kmh 30.05 in1017.6 mb 0.00 in0.0 mm 0.00 in0.0 mm 0.00 in0.0 mm
01:34 AM 31.7°F-0.2°C 30.4°F-0.9°C 95% 4.0 mph SE6.4 kmh SE 8.0 mph12.9 kmh 30.04 in1017.3 mb 0.00 in0.0 mm 0.00 in0.0 mm 0.00 in0.0 mm
01:36 AM 31.7°F-0.2°C 30.4°F-0.9°C 95% 4.0 mph SE6.4 kmh SE 8.0 mph12.9 kmh 30.04 in1017.3 mb 0.00 in0.0 mm 0.00 in0.0 mm 0.00 in0.0 mm
01:38 AM 31.7°F-0.2°C 30.4°F-0.9°C 95% 4.0 mph SE6.4 kmh SE 8.0 mph12.9 kmh 30.04 in1017.3 mb 0.00 in0.0 mm 0.00 in0.0 mm 0.00 in0.0 mm
01:40 AM 31.8°F-0.1°C 30.5°F-0.8°C 95% 4.0 mph SE6.4 kmh SE 8.0 mph12.9 kmh 30.04 in1017.3 mb 0.00 in0.0 mm 0.00 in0.0 mm 0.00 in0.0 mm
01:42 AM 31.8°F-0.1°C 30.5°F-0.8°C 95% 4.0 mph SE6.4 kmh SE 8.0 mph12.9 kmh 30.04 in1017.3 mb 0.00 in0.0 mm 0.00 in0.0 mm 0.00 in0.0 mm
01:44 AM 31.8°F-0.1°C 30.8°F-0.7°C 96% 4.0 mph SE6.4 kmh SE 9.0 mph14.5 kmh 30.03 in1016.9 mb 0.00 in0.0 mm 0.00 in0.0 mm 0.00 in0.0 mm
01:46 AM 31.8°F-0.1°C 30.5°F-0.8°C 95% 4.0 mph SE6.4 kmh SE 9.0 mph14.5 kmh 30.03 in1016.9 mb 0.00 in0.0 mm 0.00 in0.0 mm 0.00 in0.0 mm
01:48 AM 31.8°F-0.1°C 30.5°F-0.8°C 95% 4.0 mph SE6.4 kmh SE 9.0 mph14.5 kmh 30.03 in1016.9 mb 0.00 in0.0 mm 0.00 in0.0 mm 0.00 in0.0 mm
01:50 AM 31.9°F-0.1°C 30.6°F-0.8°C 95% 4.0 mph SE6.4 kmh SE 9.0 mph14.5 kmh 30.02 in1016.6 mb 0.00 in0.0 mm 0.00 in0.0 mm 0.00 in0.0 mm
01:52 AM 31.9°F-0.1°C 30.9°F-0.6°C 96% 4.0 mph SE6.4 kmh SE 9.0 mph14.5 kmh 30.02 in1016.6 mb 0.00 in0.0 mm 0.00 in0.0 mm 0.00 in0.0 mm
01:54 AM 31.9°F-0.1°C 30.9°F-0.6°C 96% 4.0 mph SSE6.4 kmh SSE 9.0 mph14.5 kmh 30.02 in1016.6 mb 0.00 in0.0 mm 0.00 in0.0 mm 0.00 in0.0 mm
01:56 AM 31.9°F-0.1°C 30.9°F-0.6°C 96% 4.0 mph SE6.4 kmh SE 9.0 mph14.5 kmh 30.02 in1016.6 mb 0.00 in0.0 mm 0.00 in0.0 mm 0.00 in0.0 mm
01:58 AM 32.0°F0.0°C 31.0°F-0.6°C 96% 4.0 mph SE6.4 kmh SE 9.0 mph14.5 kmh 30.02 in1016.6 mb 0.00 in0.0 mm 0.00 in0.0 mm 0.00 in0.0 mm
02:00 AM 31.9°F-0.1°C 30.9°F-0.6°C 96% 4.0 mph SE6.4 kmh SE 9.0 mph14.5 kmh 30.01 in1016.3 mb 0.00 in0.0 mm 0.00 in0.0 mm 0.00 in0.0 mm
02:02 AM 32.0°F0.0°C 31.0°F-0.6°C 96% 4.0 mph SE6.4 kmh SE 9.0 mph14.5 kmh 30.01 in1016.3 mb 0.00 in0.0 mm 0.00 in0.0 mm 0.00 in0.0 mm
02:04 AM 32.0°F0.0°C 31.0°F-0.6°C 96% 4.0 mph SE6.4 kmh SE 9.0 mph14.5 kmh 30.01 in1016.3 mb 0.00 in0.0 mm 0.00 in0.0 mm 0.00 in0.0 mm
02:06 AM 32.0°F0.0°C 31.0°F-0.6°C 96% 4.0 mph SE6.4 kmh SE 9.0 mph14.5 kmh 30.00 in1015.9 mb 0.00 in0.0 mm 0.00 in0.0 mm 0.00 in0.0 mm
02:08 AM 32.1°F0.1°C 31.1°F-0.5°C 96% 4.0 mph SE6.4 kmh SE 6.0 mph9.7 kmh 30.00 in1015.9 mb 0.00 in0.0 mm 0.00 in0.0 mm 0.00 in0.0 mm
02:10 AM 32.1°F0.1°C 31.1°F-0.5°C 96% 3.0 mph SE4.8 kmh SE 6.0 mph9.7 kmh 30.00 in1015.9 mb 0.00 in0.0 mm 0.00 in0.0 mm 0.00 in0.0 mm
02:12 AM 32.1°F0.1°C 31.1°F-0.5°C 96% 3.0 mph SE4.8 kmh SE 6.0 mph9.7 kmh 30.00 in1015.9 mb 0.00 in0.0 mm 0.00 in0.0 mm 0.00 in0.0 mm
02:14 AM 32.1°F0.1°C 31.1°F-0.5°C 96% 3.0 mph SE4.8 kmh SE 6.0 mph9.7 kmh 30.00 in1015.9 mb 0.00 in0.0 mm 0.00 in0.0 mm 0.00 in0.0 mm
02:16 AM 32.1°F0.1°C 31.1°F-0.5°C 96% 3.0 mph SE4.8 kmh SE 6.0 mph9.7 kmh 29.99 in1015.6 mb 0.00 in0.0 mm 0.00 in0.0 mm 0.00 in0.0 mm
02:18 AM 32.2°F0.1°C 31.2°F-0.4°C 96% 3.0 mph SE4.8 kmh SE 9.0 mph14.5 kmh 29.99 in1015.6 mb 0.00 in0.0 mm 0.00 in0.0 mm 0.00 in0.0 mm
02:20 AM 32.3°F0.2°C 31.3°F-0.4°C 96% 4.0 mph SE6.4 kmh SE 9.0 mph14.5 kmh 29.99 in1015.6 mb 0.00 in0.0 mm 0.00 in0.0 mm 0.00 in0.0 mm
02:22 AM 32.3°F0.2°C 31.3°F-0.4°C 96% 4.0 mph SE6.4 kmh SE 9.0 mph14.5 kmh 29.99 in1015.6 mb 0.00 in0.0 mm 0.00 in0.0 mm 0.00 in0.0 mm
02:24 AM 32.4°F0.2°C 31.4°F-0.3°C 96% 4.0 mph SE6.4 kmh SE 9.0 mph14.5 kmh 29.98 in1015.2 mb 0.00 in0.0 mm 0.00 in0.0 mm 0.00 in0.0 mm
02:26 AM 32.5°F0.3°C 31.5°F-0.3°C 96% 4.0 mph SE6.4 kmh SE 9.0 mph14.5 kmh 29.98 in1015.2 mb 0.00 in0.0 mm 0.00 in0.0 mm 0.00 in0.0 mm
02:28 AM 32.5°F0.3°C 31.5°F-0.3°C 96% 5.0 mph SSE8.0 kmh SSE 9.0 mph14.5 kmh 29.98 in1015.2 mb 0.00 in0.0 mm 0.00 in0.0 mm 0.00 in0.0 mm
02:32 AM 32.6°F0.3°C 31.6°F-0.2°C 96% 5.0 mph SSE8.0 kmh SSE 9.0 mph14.5 kmh 29.98 in1015.2 mb 0.00 in0.0 mm 0.00 in0.0 mm 0.00 in0.0 mm
02:34 AM 32.6°F0.3°C 31.6°F-0.2°C 96% 5.0 mph SSE8.0 kmh SSE 9.0 mph14.5 kmh 29.98 in1015.2 mb 0.00 in0.0 mm 0.00 in0.0 mm 0.00 in0.0 mm
02:36 AM 32.6°F0.3°C 31.6°F-0.2°C 96% 5.0 mph SSE8.0 kmh SSE 8.0 mph12.9 kmh 29.98 in1015.2 mb 0.00 in0.0 mm 0.00 in0.0 mm 0.00 in0.0 mm
02:38 AM 32.6°F0.3°C 31.6°F-0.2°C 96% 4.0 mph SSE6.4 kmh SSE 8.0 mph12.9 kmh 29.98 in1015.2 mb 0.00 in0.0 mm 0.00 in0.0 mm 0.00 in0.0 mm
02:40 AM 32.6°F0.3°C 31.6°F-0.2°C 96% 4.0 mph S6.4 kmh S 10.0 mph16.1 kmh 29.98 in1015.2 mb 0.00 in0.0 mm 0.00 in0.0 mm 0.00 in0.0 mm
02:42 AM 32.6°F0.3°C 31.6°F-0.2°C 96% 4.0 mph SSE6.4 kmh SSE 10.0 mph16.1 kmh 29.98 in1015.2 mb 0.00 in0.0 mm 0.00 in0.0 mm 0.00 in0.0 mm
02:44 AM 32.6°F0.3°C 31.6°F-0.2°C 96% 4.0 mph SSE6.4 kmh SSE 10.0 mph16.1 kmh 29.97 in1014.9 mb 0.00 in0.0 mm 0.00 in0.0 mm 0.00 in0.0 mm
02:46 AM 32.6°F0.3°C 31.6°F-0.2°C 96% 4.0 mph SSE6.4 kmh SSE 10.0 mph16.1 kmh 29.97 in1014.9 mb 0.00 in0.0 mm 0.00 in0.0 mm 0.00 in0.0 mm
02:48 AM 32.6°F0.3°C 31.6°F-0.2°C 96% 5.0 mph SSE8.0 kmh SSE 10.0 mph16.1 kmh 29.97 in1014.9 mb 0.00 in0.0 mm 0.00 in0.0 mm 0.00 in0.0 mm
02:50 AM 32.6°F0.3°C 31.6°F-0.2°C 96% 4.0 mph SSE6.4 kmh SSE 10.0 mph16.1 kmh 29.97 in1014.9 mb 0.00 in0.0 mm 0.00 in0.0 mm 0.00 in0.0 mm
02:52 AM 32.5°F0.3°C 31.5°F-0.3°C 96% 4.0 mph SSE6.4 kmh SSE 10.0 mph16.1 kmh 29.96 in1014.6 mb 0.00 in0.0 mm 0.00 in0.0 mm 0.00 in0.0 mm
02:54 AM 32.5°F0.3°C 31.5°F-0.3°C 96% 4.0 mph SSE6.4 kmh SSE 9.0 mph14.5 kmh 29.96 in1014.6 mb 0.00 in0.0 mm 0.00 in0.0 mm 0.00 in0.0 mm
02:56 AM 32.5°F0.3°C 31.7°F-0.2°C 97% 4.0 mph SSE6.4 kmh SSE 8.0 mph12.9 kmh 29.96 in1014.6 mb 0.00 in0.0 mm 0.00 in0.0 mm 0.00 in0.0 mm
02:58 AM 32.5°F0.3°C 31.7°F-0.2°C 97% 3.0 mph SSE4.8 kmh SSE 8.0 mph12.9 kmh 29.96 in1014.6 mb 0.00 in0.0 mm 0.00 in0.0 mm 0.00 in0.0 mm
03:00 AM 32.5°F0.3°C 31.7°F-0.2°C 97% 4.0 mph SSE6.4 kmh SSE 8.0 mph12.9 kmh 29.95 in1014.2 mb 0.00 in0.0 mm 0.00 in0.0 mm 0.00 in0.0 mm
03:02 AM 32.5°F0.3°C 31.7°F-0.2°C 97% 4.0 mph SSE6.4 kmh SSE 8.0 mph12.9 kmh 29.95 in1014.2 mb 0.00 in0.0 mm 0.00 in0.0 mm 0.00 in0.0 mm
03:04 AM 32.5°F0.3°C 31.7°F-0.2°C 97% 4.0 mph SSE6.4 kmh SSE 8.0 mph12.9 kmh 29.95 in1014.2 mb 0.00 in0.0 mm 0.00 in0.0 mm 0.00 in0.0 mm
03:06 AM 32.6°F0.3°C 31.8°F-0.1°C 97% 4.0 mph SSE6.4 kmh SSE 9.0 mph14.5 kmh 29.95 in1014.2 mb 0.00 in0.0 mm 0.00 in0.0 mm 0.00 in0.0 mm
03:08 AM 32.6°F0.3°C 31.8°F-0.1°C 97% 4.0 mph SSE6.4 kmh SSE 11.0 mph17.7 kmh 29.94 in1013.9 mb 0.00 in0.0 mm 0.00 in0.0 mm 0.00 in0.0 mm
03:10 AM 32.6°F0.3°C 31.8°F-0.1°C 97% 4.0 mph SSE6.4 kmh SSE 11.0 mph17.7 kmh 29.94 in1013.9 mb 0.00 in0.0 mm 0.00 in0.0 mm 0.00 in0.0 mm
03:12 AM 32.7°F0.4°C 31.9°F-0.1°C 97% 4.0 mph SSE6.4 kmh SSE 11.0 mph17.7 kmh 29.94 in1013.9 mb 0.00 in0.0 mm 0.00 in0.0 mm 0.00 in0.0 mm
03:14 AM 32.7°F0.4°C 31.9°F-0.1°C 97% 4.0 mph SSE6.4 kmh SSE 11.0 mph17.7 kmh 29.94 in1013.9 mb 0.00 in0.0 mm 0.00 in0.0 mm 0.00 in0.0 mm
03:16 AM 32.7°F0.4°C 31.9°F-0.1°C 97% 4.0 mph SSE6.4 kmh SSE 11.0 mph17.7 kmh 29.94 in1013.9 mb 0.00 in0.0 mm 0.00 in0.0 mm 0.00 in0.0 mm
03:18 AM 32.8°F0.4°C 32.0°F0.0°C 97% 3.0 mph SSE4.8 kmh SSE 7.0 mph11.3 kmh 29.94 in1013.9 mb 0.00 in0.0 mm 0.00 in0.0 mm 0.00 in0.0 mm
03:20 AM 32.8°F0.4°C 32.0°F0.0°C 97% 3.0 mph SE4.8 kmh SE 7.0 mph11.3 kmh 29.94 in1013.9 mb 0.00 in0.0 mm 0.00 in0.0 mm 0.00 in0.0 mm
03:22 AM 32.8°F0.4°C 32.0°F0.0°C 97% 3.0 mph SE4.8 kmh SE 9.0 mph14.5 kmh 29.94 in1013.9 mb 0.00 in0.0 mm 0.00 in0.0 mm 0.00 in0.0 mm
03:24 AM 32.8°F0.4°C 32.0°F0.0°C 97% 3.0 mph SE4.8 kmh SE 9.0 mph14.5 kmh 29.94 in1013.9 mb 0.00 in0.0 mm 0.00 in0.0 mm 0.00 in0.0 mm
03:26 AM 32.8°F0.4°C 32.0°F0.0°C 97% 3.0 mph SE4.8 kmh SE 9.0 mph14.5 kmh 29.94 in1013.9 mb 0.00 in0.0 mm 0.00 in0.0 mm 0.00 in0.0 mm
03:28 AM 32.8°F0.4°C 32.0°F0.0°C 97% 3.0 mph SE4.8 kmh SE 9.0 mph14.5 kmh 29.94 in1013.9 mb 0.00 in0.0 mm 0.00 in0.0 mm 0.00 in0.0 mm
03:30 AM 32.9°F0.5°C 32.1°F0.1°C 97% 3.0 mph SE4.8 kmh SE 9.0 mph14.5 kmh 29.94 in1013.9 mb 0.00 in0.0 mm 0.00 in0.0 mm 0.00 in0.0 mm
03:32 AM 32.9°F0.5°C 32.1°F0.1°C 97% 3.0 mph SE4.8 kmh SE 8.0 mph12.9 kmh 29.94 in1013.9 mb 0.00 in0.0 mm 0.00 in0.0 mm 0.00 in0.0 mm
03:34 AM 33.0°F0.6°C 32.2°F0.1°C 97% 3.0 mph SE4.8 kmh SE 8.0 mph12.9 kmh 29.94 in1013.9 mb 0.00 in0.0 mm 0.00 in0.0 mm 0.00 in0.0 mm
03:36 AM 33.0°F0.6°C 32.2°F0.1°C 97% 4.0 mph SSE6.4 kmh SSE 8.0 mph12.9 kmh 29.94 in1013.9 mb 0.00 in0.0 mm 0.00 in0.0 mm 0.00 in0.0 mm
03:38 AM 32.9°F0.5°C 32.1°F0.1°C 97% 3.0 mph SSE4.8 kmh SSE 9.0 mph14.5 kmh 29.94 in1013.9 mb 0.00 in0.0 mm 0.00 in0.0 mm 0.00 in0.0 mm
03:40 AM 33.0°F0.6°C 32.2°F0.1°C 97% 4.0 mph SSE6.4 kmh SSE 9.0 mph14.5 kmh 29.94 in1013.9 mb 0.00 in0.0 mm 0.00 in0.0 mm 0.00 in0.0 mm
03:42 AM 33.0°F0.6°C 32.2°F0.1°C 97% 4.0 mph SSE6.4 kmh SSE 9.0 mph14.5 kmh 29.94 in1013.9 mb 0.00 in0.0 mm 0.00 in0.0 mm 0.00 in0.0 mm
03:44 AM 33.0°F0.6°C 32.2°F0.1°C 97% 4.0 mph SSE6.4 kmh SSE 9.0 mph14.5 kmh 29.93 in1013.5 mb 0.00 in0.0 mm 0.00 in0.0 mm 0.00 in0.0 mm
03:46 AM 33.0°F0.6°C 32.2°F0.1°C 97% 3.0 mph SSE4.8 kmh SSE 9.0 mph14.5 kmh 29.93 in1013.5 mb 0.00 in0.0 mm 0.00 in0.0 mm 0.00 in0.0 mm
03:48 AM 33.1°F0.6°C 32.3°F0.2°C 97% 4.0 mph S6.4 kmh S 9.0 mph14.5 kmh 29.93 in1013.5 mb 0.00 in0.0 mm 0.00 in0.0 mm 0.00 in0.0 mm
03:50 AM 33.1°F0.6°C 32.3°F0.2°C 97% 4.0 mph S6.4 kmh S 9.0 mph14.5 kmh 29.93 in1013.5 mb 0.00 in0.0 mm 0.00 in0.0 mm 0.00 in0.0 mm
03:52 AM 33.1°F0.6°C 32.3°F0.2°C 97% 4.0 mph S6.4 kmh S 9.0 mph14.5 kmh 29.93 in1013.5 mb 0.00 in0.0 mm 0.00 in0.0 mm 0.00 in0.0 mm
03:54 AM 33.1°F0.6°C 32.3°F0.2°C 97% 4.0 mph S6.4 kmh S 9.0 mph14.5 kmh 29.92 in1013.2 mb 0.00 in0.0 mm 0.00 in0.0 mm 0.00 in0.0 mm
03:56 AM 33.2°F0.7°C 32.4°F0.2°C 97% 4.0 mph S6.4 kmh S 9.0 mph14.5 kmh 29.92 in1013.2 mb 0.00 in0.0 mm 0.00 in0.0 mm 0.00 in0.0 mm
03:58 AM 33.2°F0.7°C 32.4°F0.2°C 97% 4.0 mph SSE6.4 kmh SSE 9.0 mph14.5 kmh 29.92 in1013.2 mb 0.00 in0.0 mm 0.00 in0.0 mm 0.00 in0.0 mm
04:00 AM 33.2°F0.7°C 32.4°F0.2°C 97% 4.0 mph SSE6.4 kmh SSE 9.0 mph14.5 kmh 29.92 in1013.2 mb 0.00 in0.0 mm 0.00 in0.0 mm 0.00 in0.0 mm
04:02 AM 33.2°F0.7°C 32.4°F0.2°C 97% 4.0 mph SSE6.4 kmh SSE 9.0 mph14.5 kmh 29.92 in1013.2 mb 0.00 in0.0 mm 0.00 in0.0 mm 0.00 in0.0 mm
04:04 AM 33.2°F0.7°C 32.4°F0.2°C 97% 4.0 mph S6.4 kmh S 9.0 mph14.5 kmh 29.92 in1013.2 mb 0.00 in0.0 mm 0.00 in0.0 mm 0.00 in0.0 mm
04:06 AM 33.3°F0.7°C 32.5°F0.3°C 97% 4.0 mph SSE6.4 kmh SSE 9.0 mph14.5 kmh 29.91 in1012.9 mb 0.00 in0.0 mm 0.00 in0.0 mm 0.00 in0.0 mm
04:08 AM 33.4°F0.8°C 32.6°F0.3°C 97% 4.0 mph S6.4 kmh S 9.0 mph14.5 kmh 29.91 in1012.9 mb 0.00 in0.0 mm 0.00 in0.0 mm 0.00 in0.0 mm
04:10 AM 33.4°F0.8°C 32.6°F0.3°C 97% 4.0 mph S6.4 kmh S 9.0 mph14.5 kmh 29.91 in1012.9 mb 0.00 in0.0 mm 0.00 in0.0 mm 0.00 in0.0 mm
04:12 AM 33.4°F0.8°C 32.6°F0.3°C 97% 4.0 mph S6.4 kmh S 9.0 mph14.5 kmh 29.91 in1012.9 mb 0.00 in0.0 mm 0.00 in0.0 mm 0.00 in0.0 mm
04:14 AM 33.4°F0.8°C 32.6°F0.3°C 97% 4.0 mph SSE6.4 kmh SSE 9.0 mph14.5 kmh 29.91 in1012.9 mb 0.00 in0.0 mm 0.00 in0.0 mm 0.00 in0.0 mm
04:16 AM 33.4°F0.8°C 32.6°F0.3°C 97% 4.0 mph SSE6.4 kmh SSE 9.0 mph14.5 kmh 29.91 in1012.9 mb 0.00 in0.0 mm 0.00 in0.0 mm 0.00 in0.0 mm
04:18 AM 33.4°F0.8°C 32.6°F0.3°C 97% 3.0 mph SSE4.8 kmh SSE 7.0 mph11.3 kmh 29.90 in1012.5 mb 0.00 in0.0 mm 0.00 in0.0 mm 0.00 in0.0 mm
04:20 AM 33.5°F0.8°C 32.7°F0.4°C 97% 4.0 mph SSE6.4 kmh SSE 11.0 mph17.7 kmh 29.90 in1012.5 mb 0.00 in0.0 mm 0.00 in0.0 mm 0.00 in0.0 mm
04:22 AM 33.5°F0.8°C 32.7°F0.4°C 97% 4.0 mph SSE6.4 kmh SSE 11.0 mph17.7 kmh 29.90 in1012.5 mb 0.00 in0.0 mm 0.00 in0.0 mm 0.00 in0.0 mm
04:24 AM 33.5°F0.8°C 32.7°F0.4°C 97% 4.0 mph SSE6.4 kmh SSE 11.0 mph17.7 kmh 29.90 in1012.5 mb 0.00 in0.0 mm 0.00 in0.0 mm 0.00 in0.0 mm
04:26 AM 33.6°F0.9°C 32.8°F0.4°C 97% 4.0 mph S6.4 kmh S 13.0 mph20.9 kmh 29.89 in1012.2 mb 0.00 in0.0 mm 0.00 in0.0 mm 0.00 in0.0 mm
04:28 AM 33.7°F0.9°C 32.9°F0.5°C 97% 5.0 mph S8.0 kmh S 13.0 mph20.9 kmh 29.89 in1012.2 mb 0.00 in0.0 mm 0.00 in0.0 mm 0.00 in0.0 mm
04:30 AM 33.7°F0.9°C 32.9°F0.5°C 97% 5.0 mph SSE8.0 kmh SSE 13.0 mph20.9 kmh 29.89 in1012.2 mb 0.00 in0.0 mm 0.00 in0.0 mm 0.00 in0.0 mm
04:32 AM 33.8°F1.0°C 33.0°F0.6°C 97% 5.0 mph SSE8.0 kmh SSE 13.0 mph20.9 kmh 29.89 in1012.2 mb 0.00 in0.0 mm 0.00 in0.0 mm 0.00 in0.0 mm
04:34 AM 33.8°F1.0°C 33.0°F0.6°C 97% 5.0 mph SSE8.0 kmh SSE 13.0 mph20.9 kmh 29.89 in1012.2 mb 0.00 in0.0 mm 0.00 in0.0 mm 0.00 in0.0 mm
04:36 AM 33.9°F1.1°C 33.1°F0.6°C 97% 5.0 mph SSE8.0 kmh SSE 9.0 mph14.5 kmh 29.89 in1012.2 mb 0.00 in0.0 mm 0.00 in0.0 mm 0.00 in0.0 mm
04:38 AM 33.9°F1.1°C 33.1°F0.6°C 97% 5.0 mph SSE8.0 kmh SSE 9.0 mph14.5 kmh 29.88 in1011.9 mb 0.00 in0.0 mm 0.00 in0.0 mm 0.00 in0.0 mm
04:40 AM 33.9°F1.1°C 33.1°F0.6°C 97% 5.0 mph SSE8.0 kmh SSE 9.0 mph14.5 kmh 29.88 in1011.9 mb 0.00 in0.0 mm 0.00 in0.0 mm 0.00 in0.0 mm
04:42 AM 34.0°F1.1°C 33.2°F0.7°C 97% 5.0 mph SSE8.0 kmh SSE 9.0 mph14.5 kmh 29.88 in1011.9 mb 0.00 in0.0 mm 0.00 in0.0 mm 0.00 in0.0 mm
04:44 AM 34.0°F1.1°C 33.2°F0.7°C 97% 5.0 mph SE8.0 kmh SE 9.0 mph14.5 kmh 29.88 in1011.9 mb 0.00 in0.0 mm 0.00 in0.0 mm 0.00 in0.0 mm
04:46 AM 34.0°F1.1°C 33.2°F0.7°C 97% 5.0 mph SE8.0 kmh SE 11.0 mph17.7 kmh 29.87 in1011.5 mb 0.00 in0.0 mm 0.00 in0.0 mm 0.00 in0.0 mm
04:48 AM 34.0°F1.1°C 33.2°F0.7°C 97% 5.0 mph SE8.0 kmh SE 11.0 mph17.7 kmh 29.87 in1011.5 mb 0.00 in0.0 mm 0.00 in0.0 mm 0.00 in0.0 mm
04:50 AM 34.0°F1.1°C 33.2°F0.7°C 97% 6.0 mph SSE9.7 kmh SSE 12.0 mph19.3 kmh 29.87 in1011.5 mb 0.00 in0.0 mm 0.00 in0.0 mm 0.00 in0.0 mm
04:52 AM 34.1°F1.2°C 33.3°F0.7°C 97% 6.0 mph SSE9.7 kmh SSE 14.0 mph22.5 kmh 29.87 in1011.5 mb 0.00 in0.0 mm 0.00 in0.0 mm 0.00 in0.0 mm
04:54 AM 34.2°F1.2°C 33.4°F0.8°C 97% 6.0 mph SSE9.7 kmh SSE 14.0 mph22.5 kmh 29.87 in1011.5 mb 0.00 in0.0 mm 0.00 in0.0 mm 0.00 in0.0 mm
04:56 AM 34.3°F1.3°C 33.5°F0.8°C 97% 7.0 mph SSE11.3 kmh SSE 14.0 mph22.5 kmh 29.87 in1011.5 mb 0.00 in0.0 mm 0.00 in0.0 mm 0.00 in0.0 mm
04:58 AM 34.3°F1.3°C 33.5°F0.8°C 97% 7.0 mph SSE11.3 kmh SSE 14.0 mph22.5 kmh 29.87 in1011.5 mb 0.00 in0.0 mm 0.00 in0.0 mm 0.00 in0.0 mm
05:00 AM 34.3°F1.3°C 33.5°F0.8°C 97% 7.0 mph S11.3 kmh S 14.0 mph22.5 kmh 29.87 in1011.5 mb 0.00 in0.0 mm 0.00 in0.0 mm 0.00 in0.0 mm
05:02 AM 34.4°F1.3°C 33.6°F0.9°C 97% 7.0 mph S11.3 kmh S 14.0 mph22.5 kmh 29.87 in1011.5 mb 0.00 in0.0 mm 0.00 in0.0 mm 0.00 in0.0 mm
05:04 AM 34.4°F1.3°C 33.6°F0.9°C 97% 7.0 mph SSE11.3 kmh SSE 14.0 mph22.5 kmh 29.86 in1011.2 mb 0.00 in0.0 mm 0.00 in0.0 mm 0.00 in0.0 mm
05:06 AM 34.4°F1.3°C 33.6°F0.9°C 97% 7.0 mph SSE11.3 kmh SSE 14.0 mph22.5 kmh 29.86 in1011.2 mb 0.00 in0.0 mm 0.00 in0.0 mm 0.00 in0.0 mm
05:08 AM 34.5°F1.4°C 33.7°F0.9°C 97% 7.0 mph S11.3 kmh S 15.0 mph24.1 kmh 29.87 in1011.5 mb 0.00 in0.0 mm 0.00 in0.0 mm 0.00 in0.0 mm
05:10 AM 34.6°F1.4°C 33.8°F1.0°C 97% 8.0 mph SSE12.9 kmh SSE 17.0 mph27.4 kmh 29.87 in1011.5 mb 0.00 in0.0 mm 0.00 in0.0 mm 0.00 in0.0 mm
05:12 AM 34.6°F1.4°C 33.8°F1.0°C 97% 8.0 mph SSE12.9 kmh SSE 17.0 mph27.4 kmh 29.86 in1011.2 mb 0.00 in0.0 mm 0.00 in0.0 mm 0.00 in0.0 mm
05:14 AM 34.7°F1.5°C 33.9°F1.1°C 97% 8.0 mph S12.9 kmh S 17.0 mph27.4 kmh 29.86 in1011.2 mb 0.00 in0.0 mm 0.00 in0.0 mm 0.00 in0.0 mm
05:16 AM 34.7°F1.5°C 33.9°F1.1°C 97% 9.0 mph S14.5 kmh S 17.0 mph27.4 kmh 29.86 in1011.2 mb 0.00 in0.0 mm 0.00 in0.0 mm 0.00 in0.0 mm
05:18 AM 34.6°F1.4°C 33.8°F1.0°C 97% 9.0 mph SSE14.5 kmh SSE 17.0 mph27.4 kmh 29.85 in1010.8 mb 0.00 in0.0 mm 0.00 in0.0 mm 0.00 in0.0 mm
05:20 AM 34.6°F1.4°C 33.8°F1.0°C 97% 8.0 mph SSE12.9 kmh SSE 16.0 mph25.7 kmh 29.85 in1010.8 mb 0.00 in0.0 mm 0.00 in0.0 mm 0.00 in0.0 mm
05:22 AM 34.6°F1.4°C 33.8°F1.0°C 97% 8.0 mph SSE12.9 kmh SSE 15.0 mph24.1 kmh 29.84 in1010.5 mb 0.00 in0.0 mm 0.00 in0.0 mm 0.00 in0.0 mm
05:24 AM 34.7°F1.5°C 33.9°F1.1°C 97% 8.0 mph S12.9 kmh S 14.0 mph22.5 kmh 29.84 in1010.5 mb 0.00 in0.0 mm 0.00 in0.0 mm 0.00 in0.0 mm
05:26 AM 34.7°F1.5°C 33.9°F1.1°C 97% 7.0 mph S11.3 kmh S 14.0 mph22.5 kmh 29.84 in1010.5 mb 0.00 in0.0 mm 0.00 in0.0 mm 0.00 in0.0 mm
05:28 AM 34.7°F1.5°C 33.9°F1.1°C 97% 7.0 mph SSE11.3 kmh SSE 16.0 mph25.7 kmh 29.84 in1010.5 mb 0.00 in0.0 mm 0.00 in0.0 mm 0.00 in0.0 mm
05:30 AM 34.8°F1.6°C 34.0°F1.1°C 97% 7.0 mph S11.3 kmh S 16.0 mph25.7 kmh 29.84 in1010.5 mb 0.00 in0.0 mm 0.00 in0.0 mm 0.00 in0.0 mm
05:32 AM 34.8°F1.6°C 34.0°F1.1°C 97% 8.0 mph S12.9 kmh S 20.0 mph32.2 kmh 29.83 in1010.2 mb 0.00 in0.0 mm 0.00 in0.0 mm 0.00 in0.0 mm
05:34 AM 34.9°F1.6°C 34.1°F1.2°C 97% 8.0 mph SSE12.9 kmh SSE 20.0 mph32.2 kmh 29.83 in1010.2 mb 0.00 in0.0 mm 0.00 in0.0 mm 0.00 in0.0 mm
05:36 AM 34.9°F1.6°C 34.1°F1.2°C 97% 9.0 mph S14.5 kmh S 20.0 mph32.2 kmh 29.84 in1010.5 mb 0.00 in0.0 mm 0.00 in0.0 mm 0.00 in0.0 mm
05:38 AM 34.9°F1.6°C 34.1°F1.2°C 97% 9.0 mph S14.5 kmh S 20.0 mph32.2 kmh 29.83 in1010.2 mb 0.00 in0.0 mm 0.00 in0.0 mm 0.00 in0.0 mm
05:40 AM 35.0°F1.7°C 34.2°F1.2°C 97% 9.0 mph SSE14.5 kmh SSE 20.0 mph32.2 kmh 29.83 in1010.2 mb 0.00 in0.0 mm 0.00 in0.0 mm 0.00 in0.0 mm
05:42 AM 35.0°F1.7°C 34.2°F1.2°C 97% 8.0 mph S12.9 kmh S 16.0 mph25.7 kmh 29.82 in1009.8 mb 0.00 in0.0 mm 0.00 in0.0 mm 0.00 in0.0 mm
05:44 AM 35.0°F1.7°C 34.2°F1.2°C 97% 8.0 mph S12.9 kmh S 16.0 mph25.7 kmh 29.82 in1009.8 mb 0.00 in0.0 mm 0.00 in0.0 mm 0.00 in0.0 mm
05:46 AM 35.0°F1.7°C 34.2°F1.2°C 97% 8.0 mph SSE12.9 kmh SSE 14.0 mph22.5 kmh 29.82 in1009.8 mb 0.00 in0.0 mm 0.00 in0.0 mm 0.00 in0.0 mm
05:48 AM 35.0°F1.7°C 34.2°F1.2°C 97% 7.0 mph SSE11.3 kmh SSE 14.0 mph22.5 kmh 29.82 in1009.8 mb 0.00 in0.0 mm 0.00 in0.0 mm 0.00 in0.0 mm
05:50 AM 35.0°F1.7°C 34.2°F1.2°C 97% 8.0 mph SSE12.9 kmh SSE 13.0 mph20.9 kmh 29.82 in1009.8 mb 0.00 in0.0 mm 0.00 in0.0 mm 0.00 in0.0 mm
05:52 AM 35.0°F1.7°C 34.2°F1.2°C 97% 8.0 mph SSE12.9 kmh SSE 14.0 mph22.5 kmh 29.82 in1009.8 mb 0.00 in0.0 mm 0.00 in0.0 mm 0.00 in0.0 mm
05:54 AM 35.0°F1.7°C 34.2°F1.2°C 97% 8.0 mph S12.9 kmh S 18.0 mph29.0 kmh 29.82 in1009.8 mb 0.00 in0.0 mm 0.00 in0.0 mm 0.00 in0.0 mm
05:56 AM 35.0°F1.7°C 34.2°F1.2°C 97% 9.0 mph S14.5 kmh S 19.0 mph30.6 kmh 29.81 in1009.5 mb 0.00 in0.0 mm 0.00 in0.0 mm 0.00 in0.0 mm
05:58 AM 35.0°F1.7°C 34.2°F1.2°C 97% 9.0 mph S14.5 kmh S 19.0 mph30.6 kmh 29.81 in1009.5 mb 0.00 in0.0 mm 0.00 in0.0 mm 0.00 in0.0 mm
06:00 AM 35.1°F1.7°C 34.3°F1.3°C 97% 9.0 mph S14.5 kmh S 19.0 mph30.6 kmh 29.81 in1009.5 mb 0.00 in0.0 mm 0.00 in0.0 mm 0.00 in0.0 mm
06:02 AM 35.1°F1.7°C 34.3°F1.3°C 97% 9.0 mph S14.5 kmh S 19.0 mph30.6 kmh 29.81 in1009.5 mb 0.00 in0.0 mm 0.00 in0.0 mm 0.00 in0.0 mm
06:04 AM 35.2°F1.8°C 34.4°F1.3°C 97% 9.0 mph SSE14.5 kmh SSE 19.0 mph30.6 kmh 29.80 in1009.1 mb 0.00 in0.0 mm 0.00 in0.0 mm 0.00 in0.0 mm
06:06 AM 35.2°F1.8°C 34.4°F1.3°C 97% 9.0 mph SSE14.5 kmh SSE 18.0 mph29.0 kmh 29.80 in1009.1 mb 0.00 in0.0 mm 0.00 in0.0 mm 0.00 in0.0 mm
06:08 AM 35.2°F1.8°C 34.4°F1.3°C 97% 9.0 mph SSE14.5 kmh SSE 17.0 mph27.4 kmh 29.80 in1009.1 mb 0.00 in0.0 mm 0.00 in0.0 mm 0.00 in0.0 mm
06:10 AM 35.2°F1.8°C 34.4°F1.3°C 97% 8.0 mph SSE12.9 kmh SSE 17.0 mph27.4 kmh 29.80 in1009.1 mb 0.00 in0.0 mm 0.00 in0.0 mm 0.00 in0.0 mm
06:12 AM 35.2°F1.8°C 34.4°F1.3°C 97% 8.0 mph SSE12.9 kmh SSE 17.0 mph27.4 kmh 29.80 in1009.1 mb 0.00 in0.0 mm 0.00 in0.0 mm 0.00 in0.0 mm
06:14 AM 35.2°F1.8°C 34.4°F1.3°C 97% 8.0 mph SSE12.9 kmh SSE 17.0 mph27.4 kmh 29.81 in1009.5 mb 0.00 in0.0 mm 0.00 in0.0 mm 0.00 in0.0 mm
06:16 AM 35.3°F1.8°C 34.5°F1.4°C 97% 9.0 mph SSE14.5 kmh SSE 17.0 mph27.4 kmh 29.80 in1009.1 mb 0.00 in0.0 mm 0.00 in0.0 mm 0.00 in0.0 mm
06:18 AM 35.4°F1.9°C 34.6°F1.4°C 97% 9.0 mph SSE14.5 kmh SSE 24.0 mph38.6 kmh 29.80 in1009.1 mb 0.00 in0.0 mm 0.00 in0.0 mm 0.00 in0.0 mm
06:20 AM 35.4°F1.9°C 34.6°F1.4°C 97% 9.0 mph SSE14.5 kmh SSE 24.0 mph38.6 kmh 29.80 in1009.1 mb 0.00 in0.0 mm 0.00 in0.0 mm 0.00 in0.0 mm
06:22 AM 35.5°F1.9°C 34.7°F1.5°C 97% 10.0 mph S16.1 kmh S 24.0 mph38.6 kmh 29.81 in1009.5 mb 0.00 in0.0 mm 0.00 in0.0 mm 0.00 in0.0 mm
06:24 AM 35.5°F1.9°C 34.7°F1.5°C 97% 11.0 mph S17.7 kmh S 24.0 mph38.6 kmh 29.81 in1009.5 mb 0.00 in0.0 mm 0.00 in0.0 mm 0.00 in0.0 mm
06:26 AM 35.5°F1.9°C 34.7°F1.5°C 97% 11.0 mph S17.7 kmh S 24.0 mph38.6 kmh 29.81 in1009.5 mb 0.00 in0.0 mm 0.00 in0.0 mm 0.00 in0.0 mm
06:28 AM 35.5°F1.9°C 34.7°F1.5°C 97% 11.0 mph S17.7 kmh S 23.0 mph37.0 kmh 29.80 in1009.1 mb 0.00 in0.0 mm 0.00 in0.0 mm 0.00 in0.0 mm
06:30 AM 35.6°F2.0°C 34.8°F1.6°C 97% 11.0 mph S17.7 kmh S 23.0 mph37.0 kmh 29.80 in1009.1 mb 0.00 in0.0 mm 0.00 in0.0 mm 0.00 in0.0 mm
06:32 AM 35.6°F2.0°C 34.8°F1.6°C 97% 11.0 mph S17.7 kmh S 22.0 mph35.4 kmh 29.80 in1009.1 mb 0.00 in0.0 mm 0.00 in0.0 mm 0.00 in0.0 mm
06:34 AM 35.7°F2.1°C 34.9°F1.6°C 97% 11.0 mph S17.7 kmh S 19.0 mph30.6 kmh 29.80 in1009.1 mb 0.00 in0.0 mm 0.00 in0.0 mm 0.00 in0.0 mm
06:36 AM 35.7°F2.1°C 34.9°F1.6°C 97% 11.0 mph S17.7 kmh S 19.0 mph30.6 kmh 29.80 in1009.1 mb 0.00 in0.0 mm 0.00 in0.0 mm 0.00 in0.0 mm
06:38 AM 35.8°F2.1°C 35.0°F1.7°C 97% 11.0 mph SSE17.7 kmh SSE 19.0 mph30.6 kmh 29.78 in1008.5 mb 0.00 in0.0 mm 0.00 in0.0 mm 0.00 in0.0 mm
06:40 AM 35.8°F2.1°C 35.0°F1.7°C 97% 10.0 mph SSE16.1 kmh SSE 19.0 mph30.6 kmh 29.78 in1008.5 mb 0.00 in0.0 mm 0.00 in0.0 mm 0.00 in0.0 mm
06:42 AM 35.8°F2.1°C 35.3°F1.8°C 98% 10.0 mph S16.1 kmh S 19.0 mph30.6 kmh 29.79 in1008.8 mb 0.00 in0.0 mm 0.00 in0.0 mm 0.00 in0.0 mm
06:44 AM 35.9°F2.2°C 35.4°F1.9°C 98% 10.0 mph S16.1 kmh S 19.0 mph30.6 kmh 29.80 in1009.1 mb 0.00 in0.0 mm 0.00 in0.0 mm 0.00 in0.0 mm
06:46 AM 35.9°F2.2°C 35.4°F1.9°C 98% 10.0 mph S16.1 kmh S 19.0 mph30.6 kmh 29.80 in1009.1 mb 0.00 in0.0 mm 0.00 in0.0 mm 0.00 in0.0 mm
06:48 AM 35.9°F2.2°C 35.4°F1.9°C 98% 9.0 mph S14.5 kmh S 19.0 mph30.6 kmh 29.78 in1008.5 mb 0.00 in0.0 mm 0.00 in0.0 mm 0.00 in0.0 mm
06:50 AM 35.9°F2.2°C 35.4°F1.9°C 98% 9.0 mph S14.5 kmh S 19.0 mph30.6 kmh 29.79 in1008.8 mb 0.00 in0.0 mm 0.00 in0.0 mm 0.00 in0.0 mm
06:52 AM 35.9°F2.2°C 35.4°F1.9°C 98% 9.0 mph SSE14.5 kmh SSE 19.0 mph30.6 kmh 29.79 in1008.8 mb 0.00 in0.0 mm 0.00 in0.0 mm 0.00 in0.0 mm
06:54 AM 35.9°F2.2°C 35.4°F1.9°C 98% 9.0 mph SSE14.5 kmh SSE 19.0 mph30.6 kmh 29.79 in1008.8 mb 0.00 in0.0 mm 0.00 in0.0 mm 0.00 in0.0 mm
06:56 AM 35.9°F2.2°C 35.4°F1.9°C 98% 10.0 mph S16.1 kmh S 22.0 mph35.4 kmh 29.78 in1008.5 mb 0.00 in0.0 mm 0.00 in0.0 mm 0.00 in0.0 mm
06:58 AM 36.0°F2.2°C 35.5°F1.9°C 98% 11.0 mph S17.7 kmh S 22.0 mph35.4 kmh 29.80 in1009.1 mb 0.00 in0.0 mm 0.00 in0.0 mm 0.00 in0.0 mm
07:00 AM 36.1°F2.3°C 35.6°F2.0°C 98% 12.0 mph S19.3 kmh S 22.0 mph35.4 kmh 29.80 in1009.1 mb 0.00 in0.0 mm 0.00 in0.0 mm 0.00 in0.0 mm
07:02 AM 36.0°F2.2°C 35.5°F1.9°C 98% 13.0 mph S20.9 kmh S 22.0 mph35.4 kmh 29.80 in1009.1 mb 0.00 in0.0 mm 0.00 in0.0 mm 0.00 in0.0 mm
07:04 AM 36.0°F2.2°C 35.5°F1.9°C 98% 12.0 mph S19.3 kmh S 22.0 mph35.4 kmh 29.80 in1009.1 mb 0.00 in0.0 mm 0.00 in0.0 mm 0.00 in0.0 mm
07:06 AM 36.1°F2.3°C 35.6°F2.0°C 98% 12.0 mph S19.3 kmh S 22.0 mph35.4 kmh 29.80 in1009.1 mb 0.00 in0.0 mm 0.00 in0.0 mm 0.00 in0.0 mm
07:08 AM 36.1°F2.3°C 35.3°F1.8°C 97% 12.0 mph S19.3 kmh S 20.0 mph32.2 kmh 29.80 in1009.1 mb 0.00 in0.0 mm 0.00 in0.0 mm 0.00 in0.0 mm
07:10 AM 36.1°F2.3°C 35.3°F1.8°C 97% 11.0 mph S17.7 kmh S 20.0 mph32.2 kmh 29.79 in1008.8 mb 0.00 in0.0 mm 0.00 in0.0 mm 0.00 in0.0 mm
07:12 AM 36.1°F2.3°C 35.3°F1.8°C 97% 11.0 mph S17.7 kmh S 20.0 mph32.2 kmh 29.80 in1009.1 mb 0.00 in0.0 mm 0.00 in0.0 mm 0.00 in0.0 mm
07:14 AM 36.1°F2.3°C 35.3°F1.8°C 97% 12.0 mph S19.3 kmh S 20.0 mph32.2 kmh 29.79 in1008.8 mb 0.00 in0.0 mm 0.00 in0.0 mm 0.00 in0.0 mm
07:16 AM 36.1°F2.3°C 35.3°F1.8°C 97% 11.0 mph S17.7 kmh S 20.0 mph32.2 kmh 29.79 in1008.8 mb 0.00 in0.0 mm 0.00 in0.0 mm 0.00 in0.0 mm
07:18 AM 36.1°F2.3°C 35.3°F1.8°C 97% 10.0 mph S16.1 kmh S 20.0 mph32.2 kmh 29.79 in1008.8 mb 0.00 in0.0 mm 0.00 in0.0 mm 0.00 in0.0 mm
07:20 AM 36.1°F2.3°C 35.6°F2.0°C 98% 11.0 mph S17.7 kmh S 20.0 mph32.2 kmh 29.79 in1008.8 mb 0.00 in0.0 mm 0.00 in0.0 mm 0.77 in19.6 mm
07:22 AM 36.1°F2.3°C 35.6°F2.0°C 98% 11.0 mph S17.7 kmh S 18.0 mph29.0 kmh 29.79 in1008.8 mb 0.00 in0.0 mm 0.00 in0.0 mm 0.77 in19.6 mm
07:24 AM 36.2°F2.3°C 35.7°F2.1°C 98% 11.0 mph S17.7 kmh S 18.0 mph29.0 kmh 29.78 in1008.5 mb 0.00 in0.0 mm 0.00 in0.0 mm 0.77 in19.6 mm
07:26 AM 36.1°F2.3°C 35.6°F2.0°C 98% 10.0 mph S16.1 kmh S 18.0 mph29.0 kmh 29.78 in1008.5 mb 0.00 in0.0 mm 0.00 in0.0 mm 0.77 in19.6 mm
07:28 AM 36.2°F2.3°C 35.7°F2.1°C 98% 10.0 mph S16.1 kmh S 18.0 mph29.0 kmh 29.78 in1008.5 mb 0.00 in0.0 mm 0.00 in0.0 mm 0.77 in19.6 mm
07:30 AM 36.3°F2.4°C 35.8°F2.1°C 98% 10.0 mph S16.1 kmh S 23.0 mph37.0 kmh 29.78 in1008.5 mb 0.00 in0.0 mm 0.00 in0.0 mm 0.77 in19.6 mm
07:32 AM 36.4°F2.4°C 35.9°F2.2°C 98% 11.0 mph S17.7 kmh S 23.0 mph37.0 kmh 29.79 in1008.8 mb 0.00 in0.0 mm 0.00 in0.0 mm 0.77 in19.6 mm
07:34 AM 36.5°F2.5°C 36.0°F2.2°C 98% 12.0 mph S19.3 kmh S 23.0 mph37.0 kmh 29.78 in1008.5 mb 0.00 in0.0 mm 0.00 in0.0 mm 0.77 in19.6 mm
07:36 AM 36.5°F2.5°C 36.0°F2.2°C 98% 12.0 mph S19.3 kmh S 23.0 mph37.0 kmh 29.78 in1008.5 mb 0.00 in0.0 mm 0.00 in0.0 mm 0.77 in19.6 mm
07:38 AM 36.5°F2.5°C 36.0°F2.2°C 98% 13.0 mph S20.9 kmh S 23.0 mph37.0 kmh 29.78 in1008.5 mb 0.00 in0.0 mm 0.00 in0.0 mm 0.77 in19.6 mm
07:40 AM 36.5°F2.5°C 36.0°F2.2°C 98% 13.0 mph S20.9 kmh S 20.0 mph32.2 kmh 29.78 in1008.5 mb 0.00 in0.0 mm 0.00 in0.0 mm 0.77 in19.6 mm
07:42 AM 36.5°F2.5°C 36.0°F2.2°C 98% 12.0 mph S19.3 kmh S 20.0 mph32.2 kmh 29.77 in1008.1 mb 0.00 in0.0 mm 0.00 in0.0 mm 0.77 in19.6 mm
07:44 AM 36.5°F2.5°C 36.0°F2.2°C 98% 11.0 mph S17.7 kmh S 19.0 mph30.6 kmh 29.77 in1008.1 mb 0.00 in0.0 mm 0.00 in0.0 mm 0.77 in19.6 mm
07:46 AM 36.5°F2.5°C 36.0°F2.2°C 98% 12.0 mph S19.3 kmh S 20.0 mph32.2 kmh 29.77 in1008.1 mb 0.00 in0.0 mm 0.00 in0.0 mm 0.77 in19.6 mm
07:48 AM 36.5°F2.5°C 36.0°F2.2°C 98% 12.0 mph S19.3 kmh S 20.0 mph32.2 kmh 29.77 in1008.1 mb 0.00 in0.0 mm 0.00 in0.0 mm 0.77 in19.6 mm
07:50 AM 36.6°F2.6°C 36.1°F2.3°C 98% 12.0 mph S19.3 kmh S 23.0 mph37.0 kmh 29.78 in1008.5 mb 0.00 in0.0 mm 0.00 in0.0 mm 0.77 in19.6 mm
07:52 AM 36.7°F2.6°C 36.2°F2.3°C 98% 12.0 mph S19.3 kmh S 23.0 mph37.0 kmh 29.77 in1008.1 mb 0.00 in0.0 mm 0.00 in0.0 mm 0.77 in19.6 mm
07:54 AM 36.7°F2.6°C 36.2°F2.3°C 98% 13.0 mph S20.9 kmh S 23.0 mph37.0 kmh 29.77 in1008.1 mb 0.00 in0.0 mm 0.00 in0.0 mm 0.77 in19.6 mm
07:56 AM 36.8°F2.7°C 36.3°F2.4°C 98% 13.0 mph S20.9 kmh S 23.0 mph37.0 kmh 29.77 in1008.1 mb 0.00 in0.0 mm 0.00 in0.0 mm 0.77 in19.6 mm
07:58 AM 36.8°F2.7°C 36.3°F2.4°C 98% 13.0 mph S20.9 kmh S 23.0 mph37.0 kmh 29.78 in1008.5 mb 0.00 in0.0 mm 0.00 in0.0 mm 0.77 in19.6 mm
08:00 AM 36.9°F2.7°C 36.4°F2.4°C 98% 13.0 mph S20.9 kmh S 18.0 mph29.0 kmh 29.78 in1008.5 mb 0.00 in0.0 mm 0.00 in0.0 mm 0.77 in19.6 mm
08:02 AM 36.9°F2.7°C 36.4°F2.4°C 98% 13.0 mph S20.9 kmh S 18.0 mph29.0 kmh 29.78 in1008.5 mb 0.00 in0.0 mm 0.00 in0.0 mm 0.77 in19.6 mm
08:04 AM 36.9°F2.7°C 36.4°F2.4°C 98% 13.0 mph S20.9 kmh S 18.0 mph29.0 kmh 29.78 in1008.5 mb 0.00 in0.0 mm 0.00 in0.0 mm 0.77 in19.6 mm
08:06 AM 36.9°F2.7°C 36.4°F2.4°C 98% 14.0 mph S22.5 kmh S 19.0 mph30.6 kmh 29.78 in1008.5 mb 0.00 in0.0 mm 0.00 in0.0 mm 0.77 in19.6 mm
08:08 AM 36.7°F2.6°C 36.2°F2.3°C 98% 14.0 mph S22.5 kmh S 19.0 mph30.6 kmh 29.78 in1008.5 mb 0.00 in0.0 mm 0.00 in0.0 mm 0.77 in19.6 mm
08:10 AM 36.7°F2.6°C 36.2°F2.3°C 98% 14.0 mph S22.5 kmh S 19.0 mph30.6 kmh 29.78 in1008.5 mb 0.00 in0.0 mm 0.00 in0.0 mm 0.77 in19.6 mm
08:12 AM 36.7°F2.6°C 36.2°F2.3°C 98% 13.0 mph S20.9 kmh S 20.0 mph32.2 kmh 29.78 in1008.5 mb 0.00 in0.0 mm 0.00 in0.0 mm 0.77 in19.6 mm
08:14 AM 36.9°F2.7°C 36.4°F2.4°C 98% 14.0 mph S22.5 kmh S 20.0 mph32.2 kmh 29.78 in1008.5 mb 0.00 in0.0 mm 0.00 in0.0 mm 0.77 in19.6 mm
08:16 AM 36.8°F2.7°C 36.3°F2.4°C 98% 14.0 mph S22.5 kmh S 20.0 mph32.2 kmh 29.78 in1008.5 mb 0.00 in0.0 mm 0.00 in0.0 mm 0.77 in19.6 mm
08:18 AM 36.7°F2.6°C 36.2°F2.3°C 98% 14.0 mph S22.5 kmh S 20.0 mph32.2 kmh 29.78 in1008.5 mb 0.00 in0.0 mm 0.00 in0.0 mm 0.77 in19.6 mm
08:20 AM 36.6°F2.6°C 36.1°F2.3°C 98% 13.0 mph S20.9 kmh S 20.0 mph32.2 kmh 29.79 in1008.8 mb 0.00 in0.0 mm 0.00 in0.0 mm 0.77 in19.6 mm
08:22 AM 36.7°F2.6°C 36.2°F2.3°C 98% 13.0 mph S20.9 kmh S 19.0 mph30.6 kmh 29.79 in1008.8 mb 0.00 in0.0 mm 0.00 in0.0 mm 0.77 in19.6 mm
08:24 AM 37.0°F2.8°C 36.5°F2.5°C 98% 13.0 mph SSW20.9 kmh SSW 19.0 mph30.6 kmh 29.79 in1008.8 mb 0.00 in0.0 mm 0.00 in0.0 mm 0.77 in19.6 mm
08:26 AM 37.2°F2.9°C 36.7°F2.6°C 98% 13.0 mph SSW20.9 kmh SSW 19.0 mph30.6 kmh 29.78 in1008.5 mb 0.00 in0.0 mm 0.00 in0.0 mm 0.77 in19.6 mm
08:28 AM 37.3°F2.9°C 36.8°F2.7°C 98% 14.0 mph S22.5 kmh S 19.0 mph30.6 kmh 29.78 in1008.5 mb 0.00 in0.0 mm 0.00 in0.0 mm 0.77 in19.6 mm
08:30 AM 37.3°F2.9°C 36.8°F2.7°C 98% 14.0 mph S22.5 kmh S 19.0 mph30.6 kmh 29.78 in1008.5 mb 0.00 in0.0 mm 0.00 in0.0 mm 0.77 in19.6 mm
08:32 AM 37.3°F2.9°C 36.8°F2.7°C 98% 14.0 mph S22.5 kmh S 19.0 mph30.6 kmh 29.78 in1008.5 mb 0.00 in0.0 mm 0.00 in0.0 mm 0.77 in19.6 mm
08:34 AM 37.3°F2.9°C 36.8°F2.7°C 98% 14.0 mph S22.5 kmh S 19.0 mph30.6 kmh 29.78 in1008.5 mb 0.00 in0.0 mm 0.00 in0.0 mm 0.77 in19.6 mm
08:36 AM 37.4°F3.0°C 36.9°F2.7°C 98% 14.0 mph S22.5 kmh S 18.0 mph29.0 kmh 29.78 in1008.5 mb 0.00 in0.0 mm 0.00 in0.0 mm 0.77 in19.6 mm
08:38 AM 37.3°F2.9°C 36.8°F2.7°C 98% 14.0 mph S22.5 kmh S 18.0 mph29.0 kmh 29.78 in1008.5 mb 0.00 in0.0 mm 0.00 in0.0 mm 0.77 in19.6 mm
08:40 AM 37.4°F3.0°C 36.9°F2.7°C 98% 14.0 mph S22.5 kmh S 18.0 mph29.0 kmh 29.78 in1008.5 mb 0.00 in0.0 mm 0.00 in0.0 mm 0.77 in19.6 mm
08:42 AM 37.4°F3.0°C 36.9°F2.7°C 98% 13.0 mph S20.9 kmh S 18.0 mph29.0 kmh 29.77 in1008.1 mb 0.00 in0.0 mm 0.00 in0.0 mm 0.77 in19.6 mm
08:44 AM 37.2°F2.9°C 36.7°F2.6°C 98% 13.0 mph S20.9 kmh S 17.0 mph27.4 kmh 29.77 in1008.1 mb 0.00 in0.0 mm 0.00 in0.0 mm 0.77 in19.6 mm
08:46 AM 37.2°F2.9°C 36.7°F2.6°C 98% 12.0 mph S19.3 kmh S 16.0 mph25.7 kmh 29.77 in1008.1 mb 0.00 in0.0 mm 0.00 in0.0 mm 0.77 in19.6 mm
08:48 AM 37.2°F2.9°C 36.7°F2.6°C 98% 12.0 mph SSW19.3 kmh SSW 15.0 mph24.1 kmh 29.77 in1008.1 mb 0.00 in0.0 mm 0.00 in0.0 mm 0.77 in19.6 mm
08:50 AM 37.2°F2.9°C 36.7°F2.6°C 98% 12.0 mph SSW19.3 kmh SSW 15.0 mph24.1 kmh 29.77 in1008.1 mb 0.00 in0.0 mm 0.00 in0.0 mm 0.77 in19.6 mm
08:52 AM 37.2°F2.9°C 36.7°F2.6°C 98% 12.0 mph SSW19.3 kmh SSW 16.0 mph25.7 kmh 29.77 in1008.1 mb 0.00 in0.0 mm 0.00 in0.0 mm 0.77 in19.6 mm
08:54 AM 37.1°F2.8°C 36.6°F2.6°C 98% 11.0 mph SSW17.7 kmh SSW 16.0 mph25.7 kmh 29.77 in1008.1 mb 0.00 in0.0 mm 0.00 in0.0 mm 0.77 in19.6 mm
08:56 AM 37.1°F2.8°C 36.6°F2.6°C 98% 12.0 mph SSW19.3 kmh SSW 17.0 mph27.4 kmh 29.77 in1008.1 mb 0.00 in0.0 mm 0.00 in0.0 mm 0.77 in19.6 mm
08:58 AM 37.3°F2.9°C 36.8°F2.7°C 98% 12.0 mph SSW19.3 kmh SSW 17.0 mph27.4 kmh 29.77 in1008.1 mb 0.00 in0.0 mm 0.00 in0.0 mm 0.77 in19.6 mm
09:00 AM 37.3°F2.9°C 36.8°F2.7°C 98% 12.0 mph SSW19.3 kmh SSW 17.0 mph27.4 kmh 29.77 in1008.1 mb 0.00 in0.0 mm 0.00 in0.0 mm 0.77 in19.6 mm
09:02 AM 37.4°F3.0°C 36.9°F2.7°C 98% 12.0 mph SSW19.3 kmh SSW 17.0 mph27.4 kmh 29.78 in1008.5 mb 0.00 in0.0 mm 0.00 in0.0 mm 0.77 in19.6 mm
09:04 AM 37.5°F3.1°C 37.0°F2.8°C 98% 12.0 mph SSW19.3 kmh SSW 17.0 mph27.4 kmh 29.78 in1008.5 mb 0.00 in0.0 mm 0.00 in0.0 mm 0.77 in19.6 mm
09:06 AM 37.4°F3.0°C 36.9°F2.7°C 98% 12.0 mph SSW19.3 kmh SSW 17.0 mph27.4 kmh 29.78 in1008.5 mb 0.00 in0.0 mm 0.00 in0.0 mm 0.77 in19.6 mm
09:08 AM 37.6°F3.1°C 37.1°F2.8°C 98% 12.0 mph SW19.3 kmh SW 20.0 mph32.2 kmh 29.78 in1008.5 mb 0.00 in0.0 mm 0.00 in0.0 mm 0.77 in19.6 mm
09:10 AM 37.7°F3.2°C 37.2°F2.9°C 98% 12.0 mph SW19.3 kmh SW 20.0 mph32.2 kmh 29.78 in1008.5 mb 0.00 in0.0 mm 0.00 in0.0 mm 0.77 in19.6 mm
09:12 AM 37.7°F3.2°C 37.2°F2.9°C 98% 13.0 mph SW20.9 kmh SW 20.0 mph32.2 kmh 29.78 in1008.5 mb 0.00 in0.0 mm 0.00 in0.0 mm 0.77 in19.6 mm
09:14 AM 37.6°F3.1°C 37.1°F2.8°C 98% 12.0 mph SW19.3 kmh SW 20.0 mph32.2 kmh 29.77 in1008.1 mb 0.00 in0.0 mm 0.00 in0.0 mm 0.77 in19.6 mm
09:16 AM 37.6°F3.1°C 37.1°F2.8°C 98% 13.0 mph SW20.9 kmh SW 20.0 mph32.2 kmh 29.77 in1008.1 mb 0.00 in0.0 mm 0.00 in0.0 mm 0.77 in19.6 mm
09:18 AM 37.6°F3.1°C 37.1°F2.8°C 98% 13.0 mph SW20.9 kmh SW 19.0 mph30.6 kmh 29.77 in1008.1 mb 0.00 in0.0 mm 0.00 in0.0 mm 0.77 in19.6 mm
09:20 AM 37.8°F3.2°C 37.3°F2.9°C 98% 14.0 mph SW22.5 kmh SW 21.0 mph33.8 kmh 29.77 in1008.1 mb 0.00 in0.0 mm 0.00 in0.0 mm 0.77 in19.6 mm
09:22 AM 38.0°F3.3°C 37.5°F3.1°C 98% 14.0 mph SW22.5 kmh SW 21.0 mph33.8 kmh 29.78 in1008.5 mb 0.00 in0.0 mm 0.00 in0.0 mm 0.77 in19.6 mm
09:24 AM 38.0°F3.3°C 37.5°F3.1°C 98% 15.0 mph SW24.1 kmh SW 21.0 mph33.8 kmh 29.77 in1008.1 mb 0.00 in0.0 mm 0.00 in0.0 mm 0.77 in19.6 mm
09:26 AM 37.9°F3.3°C 37.4°F3.0°C 98% 15.0 mph SW24.1 kmh SW 21.0 mph33.8 kmh 29.77 in1008.1 mb 0.00 in0.0 mm 0.00 in0.0 mm 0.77 in19.6 mm
09:28 AM 37.9°F3.3°C 37.4°F3.0°C 98% 14.0 mph SW22.5 kmh SW 21.0 mph33.8 kmh 29.78 in1008.5 mb 0.00 in0.0 mm 0.00 in0.0 mm 0.77 in19.6 mm
09:30 AM 37.9°F3.3°C 37.4°F3.0°C 98% 14.0 mph SW22.5 kmh SW 21.0 mph33.8 kmh 29.78 in1008.5 mb 0.00 in0.0 mm 0.00 in0.0 mm 0.77 in19.6 mm
09:32 AM 37.9°F3.3°C 37.4°F3.0°C 98% 14.0 mph SW22.5 kmh SW 18.0 mph29.0 kmh 29.78 in1008.5 mb 0.00 in0.0 mm 0.00 in0.0 mm 0.77 in19.6 mm
09:34 AM 37.8°F3.2°C 37.3°F2.9°C 98% 14.0 mph SW22.5 kmh SW 25.0 mph40.2 kmh 29.78 in1008.5 mb 0.00 in0.0 mm 0.00 in0.0 mm 0.77 in19.6 mm
09:36 AM 37.6°F3.1°C 36.8°F2.7°C 97% 14.0 mph SW22.5 kmh SW 25.0 mph40.2 kmh 29.79 in1008.8 mb 0.00 in0.0 mm 0.00 in0.0 mm 0.77 in19.6 mm
09:38 AM 37.5°F3.1°C 36.7°F2.6°C 97% 15.0 mph SW24.1 kmh SW 25.0 mph40.2 kmh 29.79 in1008.8 mb 0.00 in0.0 mm 0.00 in0.0 mm 0.77 in19.6 mm
09:40 AM 37.4°F3.0°C 36.6°F2.6°C 97% 15.0 mph SW24.1 kmh SW 25.0 mph40.2 kmh 29.79 in1008.8 mb 0.00 in0.0 mm 0.00 in0.0 mm 0.77 in19.6 mm
09:42 AM 37.4°F3.0°C 36.6°F2.6°C 97% 15.0 mph SW24.1 kmh SW 25.0 mph40.2 kmh 29.79 in1008.8 mb 0.00 in0.0 mm 0.00 in0.0 mm 0.77 in19.6 mm
09:44 AM 37.4°F3.0°C 36.6°F2.6°C 97% 15.0 mph SW24.1 kmh SW 22.0 mph35.4 kmh 29.79 in1008.8 mb 0.00 in0.0 mm 0.00 in0.0 mm 0.77 in19.6 mm
09:46 AM 37.4°F3.0°C 36.6°F2.6°C 97% 15.0 mph SW24.1 kmh SW 22.0 mph35.4 kmh 29.79 in1008.8 mb 0.00 in0.0 mm 0.00 in0.0 mm 0.77 in19.6 mm
09:48 AM 37.5°F3.1°C 36.7°F2.6°C 97% 16.0 mph SW25.7 kmh SW 22.0 mph35.4 kmh 29.79 in1008.8 mb 0.00 in0.0 mm 0.00 in0.0 mm 0.77 in19.6 mm
09:50 AM 37.4°F3.0°C 36.6°F2.6°C 97% 16.0 mph SW25.7 kmh SW 22.0 mph35.4 kmh 29.79 in1008.8 mb 0.00 in0.0 mm 0.00 in0.0 mm 0.77 in19.6 mm
09:52 AM 37.4°F3.0°C 36.6°F2.6°C 97% 16.0 mph SW25.7 kmh SW 22.0 mph35.4 kmh 29.80 in1009.1 mb 0.00 in0.0 mm 0.00 in0.0 mm 0.77 in19.6 mm
09:54 AM 37.3°F2.9°C 36.5°F2.5°C 97% 17.0 mph WSW27.4 kmh WSW 23.0 mph37.0 kmh 29.80 in1009.1 mb 0.00 in0.0 mm 0.00 in0.0 mm 0.77 in19.6 mm
09:56 AM 37.3°F2.9°C 36.5°F2.5°C 97% 17.0 mph WSW27.4 kmh WSW 23.0 mph37.0 kmh 29.80 in1009.1 mb 0.00 in0.0 mm 0.00 in0.0 mm 0.77 in19.6 mm
09:58 AM 37.2°F2.9°C 36.4°F2.4°C 97% 17.0 mph WSW27.4 kmh WSW 25.0 mph40.2 kmh 29.80 in1009.1 mb 0.00 in0.0 mm 0.00 in0.0 mm 0.77 in19.6 mm
10:00 AM 37.1°F2.8°C 36.3°F2.4°C 97% 17.0 mph WSW27.4 kmh WSW 25.0 mph40.2 kmh 29.80 in1009.1 mb 0.00 in0.0 mm 0.00 in0.0 mm 0.77 in19.6 mm
10:02 AM 37.0°F2.8°C 36.2°F2.3°C 97% 17.0 mph WSW27.4 kmh WSW 25.0 mph40.2 kmh 29.80 in1009.1 mb 0.00 in0.0 mm 0.00 in0.0 mm 0.77 in19.6 mm
10:04 AM 36.8°F2.7°C 36.0°F2.2°C 97% 17.0 mph WSW27.4 kmh WSW 25.0 mph40.2 kmh 29.80 in1009.1 mb 0.00 in0.0 mm 0.00 in0.0 mm 0.77 in19.6 mm
10:06 AM 36.7°F2.6°C 35.9°F2.2°C 97% 17.0 mph WSW27.4 kmh WSW 25.0 mph40.2 kmh 29.80 in1009.1 mb 0.00 in0.0 mm 0.00 in0.0 mm 0.77 in19.6 mm
10:08 AM 36.6°F2.6°C 35.8°F2.1°C 97% 16.0 mph WSW25.7 kmh WSW 22.0 mph35.4 kmh 29.80 in1009.1 mb 0.00 in0.0 mm 0.00 in0.0 mm 0.77 in19.6 mm
10:10 AM 36.5°F2.5°C 35.7°F2.1°C 97% 16.0 mph WSW25.7 kmh WSW 22.0 mph35.4 kmh 29.81 in1009.5 mb 0.00 in0.0 mm 0.00 in0.0 mm 0.77 in19.6 mm
10:12 AM 36.4°F2.4°C 35.6°F2.0°C 97% 15.0 mph WSW24.1 kmh WSW 21.0 mph33.8 kmh 29.80 in1009.1 mb 0.00 in0.0 mm 0.00 in0.0 mm 0.77 in19.6 mm
10:14 AM 36.3°F2.4°C 35.5°F1.9°C 97% 16.0 mph WSW25.7 kmh WSW 23.0 mph37.0 kmh 29.81 in1009.5 mb 0.00 in0.0 mm 0.00 in0.0 mm 0.77 in19.6 mm
10:16 AM 36.2°F2.3°C 35.4°F1.9°C 97% 15.0 mph WSW24.1 kmh WSW 23.0 mph37.0 kmh 29.81 in1009.5 mb 0.00 in0.0 mm 0.00 in0.0 mm 0.77 in19.6 mm
10:18 AM 36.1°F2.3°C 35.3°F1.8°C 97% 15.0 mph WSW24.1 kmh WSW 23.0 mph37.0 kmh 29.81 in1009.5 mb 0.00 in0.0 mm 0.00 in0.0 mm 0.77 in19.6 mm
10:20 AM 36.1°F2.3°C 35.3°F1.8°C 97% 15.0 mph WSW24.1 kmh WSW 23.0 mph37.0 kmh 29.81 in1009.5 mb 0.00 in0.0 mm 0.00 in0.0 mm 0.77 in19.6 mm
10:22 AM 36.0°F2.2°C 35.2°F1.8°C 97% 16.0 mph WSW25.7 kmh WSW 23.0 mph37.0 kmh 29.81 in1009.5 mb 0.00 in0.0 mm 0.00 in0.0 mm 0.77 in19.6 mm
10:24 AM 35.9°F2.2°C 35.1°F1.7°C 97% 16.0 mph WSW25.7 kmh WSW 25.0 mph40.2 kmh 29.82 in1009.8 mb 0.00 in0.0 mm 0.00 in0.0 mm 0.77 in19.6 mm
10:26 AM 35.9°F2.2°C 35.1°F1.7°C 97% 17.0 mph WSW27.4 kmh WSW 27.0 mph43.5 kmh 29.82 in1009.8 mb 0.00 in0.0 mm 0.00 in0.0 mm 0.77 in19.6 mm
10:28 AM 35.9°F2.2°C 35.1°F1.7°C 97% 17.0 mph WSW27.4 kmh WSW 27.0 mph43.5 kmh 29.82 in1009.8 mb 0.00 in0.0 mm 0.00 in0.0 mm 0.77 in19.6 mm
10:30 AM 35.7°F2.1°C 34.7°F1.5°C 96% 17.0 mph WSW27.4 kmh WSW 27.0 mph43.5 kmh 29.82 in1009.8 mb 0.00 in0.0 mm 0.00 in0.0 mm 0.77 in19.6 mm
10:32 AM 35.7°F2.1°C 34.7°F1.5°C 96% 17.0 mph WSW27.4 kmh WSW 27.0 mph43.5 kmh 29.82 in1009.8 mb 0.00 in0.0 mm 0.00 in0.0 mm 0.77 in19.6 mm
10:34 AM 35.6°F2.0°C 34.6°F1.4°C 96% 17.0 mph WSW27.4 kmh WSW 27.0 mph43.5 kmh 29.82 in1009.8 mb 0.00 in0.0 mm 0.00 in0.0 mm 0.77 in19.6 mm
10:36 AM 35.5°F1.9°C 34.7°F1.5°C 97% 17.0 mph WSW27.4 kmh WSW 22.0 mph35.4 kmh 29.82 in1009.8 mb 0.00 in0.0 mm 0.00 in0.0 mm 0.77 in19.6 mm
10:38 AM 35.5°F1.9°C 34.5°F1.4°C 96% 17.0 mph WSW27.4 kmh WSW 22.0 mph35.4 kmh 29.82 in1009.8 mb 0.00 in0.0 mm 0.00 in0.0 mm 0.77 in19.6 mm
10:40 AM 35.4°F1.9°C 34.6°F1.4°C 97% 16.0 mph WSW25.7 kmh WSW 22.0 mph35.4 kmh 29.82 in1009.8 mb 0.00 in0.0 mm 0.00 in0.0 mm 0.77 in19.6 mm
10:42 AM 35.4°F1.9°C 34.6°F1.4°C 97% 16.0 mph WSW25.7 kmh WSW 22.0 mph35.4 kmh 29.82 in1009.8 mb 0.00 in0.0 mm 0.00 in0.0 mm 0.77 in19.6 mm
10:44 AM 35.5°F1.9°C 34.5°F1.4°C 96% 17.0 mph WSW27.4 kmh WSW 23.0 mph37.0 kmh 29.82 in1009.8 mb 0.00 in0.0 mm 0.00 in0.0 mm 0.77 in19.6 mm
10:46 AM 35.4°F1.9°C 34.4°F1.3°C 96% 17.0 mph WSW27.4 kmh WSW 24.0 mph38.6 kmh 29.82 in1009.8 mb 0.00 in0.0 mm 0.00 in0.0 mm 0.77 in19.6 mm
10:48 AM 35.4°F1.9°C 34.4°F1.3°C 96% 16.0 mph WSW25.7 kmh WSW 24.0 mph38.6 kmh 29.82 in1009.8 mb 0.00 in0.0 mm 0.00 in0.0 mm 0.77 in19.6 mm
10:50 AM 35.4°F1.9°C 34.4°F1.3°C 96% 17.0 mph WSW27.4 kmh WSW 24.0 mph38.6 kmh 29.82 in1009.8 mb 0.00 in0.0 mm 0.00 in0.0 mm 0.77 in19.6 mm
10:52 AM 35.4°F1.9°C 34.4°F1.3°C 96% 17.0 mph WSW27.4 kmh WSW 24.0 mph38.6 kmh 29.82 in1009.8 mb 0.00 in0.0 mm 0.00 in0.0 mm 0.77 in19.6 mm
10:54 AM 35.5°F1.9°C 34.5°F1.4°C 96% 17.0 mph WSW27.4 kmh WSW 24.0 mph38.6 kmh 29.82 in1009.8 mb 0.00 in0.0 mm 0.00 in0.0 mm 0.77 in19.6 mm
10:56 AM 35.6°F2.0°C 34.6°F1.4°C 96% 16.0 mph WSW25.7 kmh WSW 23.0 mph37.0 kmh 29.83 in1010.2 mb 0.00 in0.0 mm 0.00 in0.0 mm 0.77 in19.6 mm
10:58 AM 35.6°F2.0°C 34.6°F1.4°C 96% 16.0 mph WSW25.7 kmh WSW 23.0 mph37.0 kmh 29.83 in1010.2 mb 0.00 in0.0 mm 0.00 in0.0 mm 0.77 in19.6 mm
11:00 AM 35.7°F2.1°C 34.7°F1.5°C 96% 16.0 mph WSW25.7 kmh WSW 21.0 mph33.8 kmh 29.83 in1010.2 mb 0.00 in0.0 mm 0.00 in0.0 mm 0.77 in19.6 mm
11:02 AM 35.8°F2.1°C 34.8°F1.6°C 96% 16.0 mph WSW25.7 kmh WSW 21.0 mph33.8 kmh 29.83 in1010.2 mb 0.00 in0.0 mm 0.00 in0.0 mm 0.77 in19.6 mm
11:04 AM 35.8°F2.1°C 34.8°F1.6°C 96% 16.0 mph WSW25.7 kmh WSW 24.0 mph38.6 kmh 29.83 in1010.2 mb 0.00 in0.0 mm 0.00 in0.0 mm 0.77 in19.6 mm
11:06 AM 35.8°F2.1°C 34.5°F1.4°C 95% 16.0 mph WSW25.7 kmh WSW 26.0 mph41.8 kmh 29.83 in1010.2 mb 0.00 in0.0 mm 0.00 in0.0 mm 0.77 in19.6 mm
11:08 AM 35.8°F2.1°C 34.5°F1.4°C 95% 17.0 mph WSW27.4 kmh WSW 26.0 mph41.8 kmh 29.83 in1010.2 mb 0.00 in0.0 mm 0.00 in0.0 mm 0.77 in19.6 mm
11:10 AM 35.7°F2.1°C 34.4°F1.3°C 95% 17.0 mph WSW27.4 kmh WSW 26.0 mph41.8 kmh 29.83 in1010.2 mb 0.00 in0.0 mm 0.00 in0.0 mm 0.77 in19.6 mm
11:12 AM 35.7°F2.1°C 34.4°F1.3°C 95% 18.0 mph WSW29.0 kmh WSW 26.0 mph41.8 kmh 29.84 in1010.5 mb 0.00 in0.0 mm 0.00 in0.0 mm 0.77 in19.6 mm
11:14 AM 35.6°F2.0°C 34.0°F1.1°C 94% 18.0 mph WSW29.0 kmh WSW 26.0 mph41.8 kmh 29.84 in1010.5 mb 0.00 in0.0 mm 0.00 in0.0 mm 0.77 in19.6 mm
11:16 AM 35.5°F1.9°C 34.2°F1.2°C 95% 17.0 mph WSW27.4 kmh WSW 26.0 mph41.8 kmh 29.84 in1010.5 mb 0.00 in0.0 mm 0.00 in0.0 mm 0.77 in19.6 mm
11:18 AM 35.3°F1.8°C 33.7°F0.9°C 94% 18.0 mph WSW29.0 kmh WSW 26.0 mph41.8 kmh 29.84 in1010.5 mb 0.00 in0.0 mm 0.00 in0.0 mm 0.77 in19.6 mm
11:20 AM 35.3°F1.8°C 33.7°F0.9°C 94% 18.0 mph WSW29.0 kmh WSW 26.0 mph41.8 kmh 29.84 in1010.5 mb 0.00 in0.0 mm 0.00 in0.0 mm 0.77 in19.6 mm
11:22 AM 35.2°F1.8°C 33.6°F0.9°C 94% 18.0 mph WSW29.0 kmh WSW 26.0 mph41.8 kmh 29.84 in1010.5 mb 0.00 in0.0 mm 0.00 in0.0 mm 0.77 in19.6 mm
11:24 AM 35.2°F1.8°C 33.6°F0.9°C 94% 18.0 mph WSW29.0 kmh WSW 26.0 mph41.8 kmh 29.84 in1010.5 mb 0.00 in0.0 mm 0.00 in0.0 mm 0.77 in19.6 mm
11:26 AM 35.1°F1.7°C 33.5°F0.8°C 94% 19.0 mph WSW30.6 kmh WSW 26.0 mph41.8 kmh 29.84 in1010.5 mb 0.00 in0.0 mm 0.00 in0.0 mm 0.77 in19.6 mm
11:28 AM 35.0°F1.7°C 33.4°F0.8°C 94% 18.0 mph WSW29.0 kmh WSW 26.0 mph41.8 kmh 29.84 in1010.5 mb 0.00 in0.0 mm 0.00 in0.0 mm 0.77 in19.6 mm
11:30 AM 35.0°F1.7°C 33.4°F0.8°C 94% 18.0 mph WSW29.0 kmh WSW 27.0 mph43.5 kmh 29.84 in1010.5 mb 0.00 in0.0 mm 0.00 in0.0 mm 0.77 in19.6 mm
11:32 AM 35.0°F1.7°C 33.4°F0.8°C 94% 18.0 mph WSW29.0 kmh WSW 27.0 mph43.5 kmh 29.84 in1010.5 mb 0.00 in0.0 mm 0.00 in0.0 mm 0.77 in19.6 mm
11:34 AM 34.9°F1.6°C 33.6°F0.9°C 95% 17.0 mph WSW27.4 kmh WSW 27.0 mph43.5 kmh 29.84 in1010.5 mb 0.00 in0.0 mm 0.00 in0.0 mm 0.77 in19.6 mm
11:36 AM 34.9°F1.6°C 33.3°F0.7°C 94% 17.0 mph WSW27.4 kmh WSW 28.0 mph45.1 kmh 29.84 in1010.5 mb 0.00 in0.0 mm 0.00 in0.0 mm 0.77 in19.6 mm
11:38 AM 34.8°F1.6°C 33.2°F0.7°C 94% 18.0 mph WSW29.0 kmh WSW 28.0 mph45.1 kmh 29.84 in1010.5 mb 0.00 in0.0 mm 0.00 in0.0 mm 0.77 in19.6 mm
11:40 AM 34.7°F1.5°C 33.4°F0.8°C 95% 18.0 mph WSW29.0 kmh WSW 28.0 mph45.1 kmh 29.84 in1010.5 mb 0.00 in0.0 mm 0.00 in0.0 mm 0.77 in19.6 mm
11:42 AM 34.7°F1.5°C 33.2°F0.7°C 94% 18.0 mph WSW29.0 kmh WSW 28.0 mph45.1 kmh 29.84 in1010.5 mb 0.00 in0.0 mm 0.00 in0.0 mm 0.77 in19.6 mm
11:44 AM 34.7°F1.5°C 33.2°F0.7°C 94% 18.0 mph WSW29.0 kmh WSW 28.0 mph45.1 kmh 29.84 in1010.5 mb 0.00 in0.0 mm 0.00 in0.0 mm 0.77 in19.6 mm
11:46 AM 34.7°F1.5°C 33.2°F0.7°C 94% 18.0 mph WSW29.0 kmh WSW 24.0 mph38.6 kmh 29.84 in1010.5 mb 0.00 in0.0 mm 0.00 in0.0 mm 0.77 in19.6 mm
11:48 AM 34.7°F1.5°C 33.2°F0.7°C 94% 18.0 mph WSW29.0 kmh WSW 24.0 mph38.6 kmh 29.84 in1010.5 mb 0.00 in0.0 mm 0.00 in0.0 mm 0.77 in19.6 mm
11:50 AM 34.7°F1.5°C 33.2°F0.7°C 94% 17.0 mph WSW27.4 kmh WSW 24.0 mph38.6 kmh 29.84 in1010.5 mb 0.00 in0.0 mm 0.00 in0.0 mm 0.77 in19.6 mm
11:52 AM 34.8°F1.6°C 33.2°F0.7°C 94% 17.0 mph WSW27.4 kmh WSW 24.0 mph38.6 kmh 29.84 in1010.5 mb 0.00 in0.0 mm 0.00 in0.0 mm 0.77 in19.6 mm
11:54 AM 34.8°F1.6°C 33.5°F0.8°C 95% 17.0 mph WSW27.4 kmh WSW 24.0 mph38.6 kmh 29.84 in1010.5 mb 0.00 in0.0 mm 0.00 in0.0 mm 0.77 in19.6 mm
11:56 AM 34.8°F1.6°C 33.5°F0.8°C 95% 17.0 mph WSW27.4 kmh WSW 24.0 mph38.6 kmh 29.84 in1010.5 mb 0.00 in0.0 mm 0.00 in0.0 mm 0.77 in19.6 mm
11:58 AM 34.8°F1.6°C 33.5°F0.8°C 95% 17.0 mph WSW27.4 kmh WSW 24.0 mph38.6 kmh 29.84 in1010.5 mb 0.00 in0.0 mm 0.00 in0.0 mm 0.77 in19.6 mm
12:00 PM 34.8°F1.6°C 33.5°F0.8°C 95% 16.0 mph WSW25.7 kmh WSW 24.0 mph38.6 kmh 29.84 in1010.5 mb 0.00 in0.0 mm 0.00 in0.0 mm 0.77 in19.6 mm
12:02 PM 34.8°F1.6°C 33.5°F0.8°C 95% 16.0 mph WSW25.7 kmh WSW 24.0 mph38.6 kmh 29.84 in1010.5 mb 0.00 in0.0 mm 0.00 in0.0 mm 0.77 in19.6 mm
12:04 PM 34.9°F1.6°C 33.6°F0.9°C 95% 16.0 mph WSW25.7 kmh WSW 24.0 mph38.6 kmh 29.84 in1010.5 mb 0.00 in0.0 mm 0.00 in0.0 mm 0.77 in19.6 mm
12:06 PM 35.0°F1.7°C 33.7°F0.9°C 95% 16.0 mph WSW25.7 kmh WSW 24.0 mph38.6 kmh 29.84 in1010.5 mb 0.00 in0.0 mm 0.00 in0.0 mm 0.77 in19.6 mm
12:08 PM 35.1°F1.7°C 33.8°F1.0°C 95% 15.0 mph WSW24.1 kmh WSW 23.0 mph37.0 kmh 29.84 in1010.5 mb 0.00 in0.0 mm 0.00 in0.0 mm 0.77 in19.6 mm
12:10 PM 35.1°F1.7°C 33.8°F1.0°C 95% 16.0 mph WSW25.7 kmh WSW 23.0 mph37.0 kmh 29.84 in1010.5 mb 0.00 in0.0 mm 0.00 in0.0 mm 0.77 in19.6 mm
12:12 PM 35.1°F1.7°C 33.8°F1.0°C 95% 16.0 mph WSW25.7 kmh WSW 23.0 mph37.0 kmh 29.84 in1010.5 mb 0.00 in0.0 mm 0.00 in0.0 mm 0.77 in19.6 mm
12:14 PM 35.2°F1.8°C 33.9°F1.1°C 95% 17.0 mph WSW27.4 kmh WSW 23.0 mph37.0 kmh 29.84 in1010.5 mb 0.00 in0.0 mm 0.00 in0.0 mm 0.77 in19.6 mm
12:16 PM 35.3°F1.8°C 34.0°F1.1°C 95% 17.0 mph WSW27.4 kmh WSW 23.0 mph37.0 kmh 29.84 in1010.5 mb 0.00 in0.0 mm 0.00 in0.0 mm 0.77 in19.6 mm
12:18 PM 35.3°F1.8°C 34.0°F1.1°C 95% 17.0 mph WSW27.4 kmh WSW 23.0 mph37.0 kmh 29.84 in1010.5 mb 0.00 in0.0 mm 0.00 in0.0 mm 0.77 in19.6 mm
12:20 PM 35.3°F1.8°C 34.0°F1.1°C 95% 17.0 mph WSW27.4 kmh WSW 26.0 mph41.8 kmh 29.84 in1010.5 mb 0.00 in0.0 mm 0.00 in0.0 mm 0.77 in19.6 mm
12:22 PM 35.3°F1.8°C 33.7°F0.9°C 94% 18.0 mph WSW29.0 kmh WSW 26.0 mph41.8 kmh 29.84 in1010.5 mb 0.00 in0.0 mm 0.00 in0.0 mm 0.77 in19.6 mm
12:24 PM 35.2°F1.8°C 33.6°F0.9°C 94% 18.0 mph WSW29.0 kmh WSW 26.0 mph41.8 kmh 29.85 in1010.8 mb 0.00 in0.0 mm 0.00 in0.0 mm 0.77 in19.6 mm
12:26 PM 35.1°F1.7°C 33.5°F0.8°C 94% 18.0 mph WSW29.0 kmh WSW 26.0 mph41.8 kmh 29.85 in1010.8 mb 0.00 in0.0 mm 0.00 in0.0 mm 0.77 in19.6 mm
12:28 PM 35.2°F1.8°C 33.6°F0.9°C 94% 19.0 mph WSW30.6 kmh WSW 27.0 mph43.5 kmh 29.84 in1010.5 mb 0.00 in0.0 mm 0.00 in0.0 mm 0.77 in19.6 mm
12:30 PM 35.1°F1.7°C 33.5°F0.8°C 94% 18.0 mph WSW29.0 kmh WSW 27.0 mph43.5 kmh 29.85 in1010.8 mb 0.00 in0.0 mm 0.00 in0.0 mm 0.77 in19.6 mm
12:32 PM 35.1°F1.7°C 33.5°F0.8°C 94% 18.0 mph WSW29.0 kmh WSW 27.0 mph43.5 kmh 29.85 in1010.8 mb 0.00 in0.0 mm 0.00 in0.0 mm 0.77 in19.6 mm
12:34 PM 35.0°F1.7°C 33.2°F0.7°C 93% 18.0 mph WSW29.0 kmh WSW 27.0 mph43.5 kmh 29.85 in1010.8 mb 0.00 in0.0 mm 0.00 in0.0 mm 0.77 in19.6 mm
12:36 PM 35.0°F1.7°C 33.2°F0.7°C 93% 18.0 mph WSW29.0 kmh WSW 27.0 mph43.5 kmh 29.85 in1010.8 mb 0.00 in0.0 mm 0.00 in0.0 mm 0.77 in19.6 mm
12:38 PM 35.0°F1.7°C 33.4°F0.8°C 94% 18.0 mph WSW29.0 kmh WSW 26.0 mph41.8 kmh 29.85 in1010.8 mb 0.00 in0.0 mm 0.00 in0.0 mm 0.77 in19.6 mm
12:40 PM 35.0°F1.7°C 33.4°F0.8°C 94% 18.0 mph WSW29.0 kmh WSW 26.0 mph41.8 kmh 29.85 in1010.8 mb 0.00 in0.0 mm 0.00 in0.0 mm 0.77 in19.6 mm
12:42 PM 35.0°F1.7°C 33.2°F0.7°C 93% 18.0 mph WSW29.0 kmh WSW 26.0 mph41.8 kmh 29.85 in1010.8 mb 0.00 in0.0 mm 0.00 in0.0 mm 0.77 in19.6 mm
12:44 PM 35.0°F1.7°C 33.2°F0.7°C 93% 18.0 mph WSW29.0 kmh WSW 26.0 mph41.8 kmh 29.85 in1010.8 mb 0.00 in0.0 mm 0.00 in0.0 mm 0.77 in19.6 mm
12:46 PM 35.0°F1.7°C 33.2°F0.7°C 93% 18.0 mph WSW29.0 kmh WSW 28.0 mph45.1 kmh 29.85 in1010.8 mb 0.00 in0.0 mm 0.00 in0.0 mm 0.77 in19.6 mm
12:48 PM 35.0°F1.7°C 33.2°F0.7°C 93% 18.0 mph WSW29.0 kmh WSW 28.0 mph45.1 kmh 29.85 in1010.8 mb 0.00 in0.0 mm 0.00 in0.0 mm 0.77 in19.6 mm
12:50 PM 35.0°F1.7°C 33.2°F0.7°C 93% 18.0 mph WSW29.0 kmh WSW 28.0 mph45.1 kmh 29.85 in1010.8 mb 0.00 in0.0 mm 0.00 in0.0 mm 0.77 in19.6 mm
12:52 PM 35.1°F1.7°C 33.3°F0.7°C 93% 17.0 mph WSW27.4 kmh WSW 28.0 mph45.1 kmh 29.84 in1010.5 mb 0.00 in0.0 mm 0.00 in0.0 mm 0.77 in19.6 mm
12:54 PM 35.0°F1.7°C 33.2°F0.7°C 93% 17.0 mph WSW27.4 kmh WSW 28.0 mph45.1 kmh 29.85 in1010.8 mb 0.00 in0.0 mm 0.00 in0.0 mm 0.77 in19.6 mm
12:56 PM 35.0°F1.7°C 33.2°F0.7°C 93% 16.0 mph WSW25.7 kmh WSW 27.0 mph43.5 kmh 29.84 in1010.5 mb 0.00 in0.0 mm 0.00 in0.0 mm 0.77 in19.6 mm
12:58 PM 34.9°F1.6°C 33.1°F0.6°C 93% 15.0 mph WSW24.1 kmh WSW 25.0 mph40.2 kmh 29.84 in1010.5 mb 0.00 in0.0 mm 0.00 in0.0 mm 0.77 in19.6 mm
01:00 PM 34.9°F1.6°C 33.1°F0.6°C 93% 15.0 mph WSW24.1 kmh WSW 25.0 mph40.2 kmh 29.84 in1010.5 mb 0.00 in0.0 mm 0.00 in0.0 mm 0.77 in19.6 mm
01:02 PM 34.9°F1.6°C 33.1°F0.6°C 93% 15.0 mph WSW24.1 kmh WSW 25.0 mph40.2 kmh 29.84 in1010.5 mb 0.00 in0.0 mm 0.00 in0.0 mm 0.77 in19.6 mm
01:04 PM 34.9°F1.6°C 33.1°F0.6°C 93% 15.0 mph WSW24.1 kmh WSW 25.0 mph40.2 kmh 29.84 in1010.5 mb 0.00 in0.0 mm 0.00 in0.0 mm 0.77 in19.6 mm
01:06 PM 34.9°F1.6°C 33.1°F0.6°C 93% 15.0 mph WSW24.1 kmh WSW 25.0 mph40.2 kmh 29.84 in1010.5 mb 0.00 in0.0 mm 0.00 in0.0 mm 0.77 in19.6 mm
01:08 PM 34.9°F1.6°C 33.1°F0.6°C 93% 16.0 mph WSW25.7 kmh WSW 25.0 mph40.2 kmh 29.84 in1010.5 mb 0.00 in0.0 mm 0.00 in0.0 mm 0.77 in19.6 mm
01:10 PM 34.8°F1.6°C 33.0°F0.6°C 93% 16.0 mph WSW25.7 kmh WSW 25.0 mph40.2 kmh 29.84 in1010.5 mb 0.00 in0.0 mm 0.00 in0.0 mm 0.77 in19.6 mm
01:12 PM 34.8°F1.6°C 33.0°F0.6°C 93% 16.0 mph WSW25.7 kmh WSW 24.0 mph38.6 kmh 29.84 in1010.5 mb 0.00 in0.0 mm 0.00 in0.0 mm 0.77 in19.6 mm
01:14 PM 34.9°F1.6°C 33.1°F0.6°C 93% 16.0 mph WSW25.7 kmh WSW 24.0 mph38.6 kmh 29.84 in1010.5 mb 0.00 in0.0 mm 0.00 in0.0 mm 0.77 in19.6 mm
01:16 PM 34.9°F1.6°C 33.1°F0.6°C 93% 16.0 mph WSW25.7 kmh WSW 24.0 mph38.6 kmh 29.84 in1010.5 mb 0.00 in0.0 mm 0.00 in0.0 mm 0.77 in19.6 mm
01:18 PM 34.9°F1.6°C 33.1°F0.6°C 93% 17.0 mph WSW27.4 kmh WSW 24.0 mph38.6 kmh 29.84 in1010.5 mb 0.00 in0.0 mm 0.00 in0.0 mm 0.77 in19.6 mm
01:20 PM 34.9°F1.6°C 33.1°F0.6°C 93% 17.0 mph WSW27.4 kmh WSW 24.0 mph38.6 kmh 29.85 in1010.8 mb 0.00 in0.0 mm 0.00 in0.0 mm 0.77 in19.6 mm
01:22 PM 34.8°F1.6°C 33.0°F0.6°C 93% 17.0 mph WSW27.4 kmh WSW 24.0 mph38.6 kmh 29.85 in1010.8 mb 0.00 in0.0 mm 0.00 in0.0 mm 0.77 in19.6 mm
01:24 PM 34.7°F1.5°C 32.9°F0.5°C 93% 16.0 mph WSW25.7 kmh WSW 24.0 mph38.6 kmh 29.84 in1010.5 mb 0.00 in0.0 mm 0.00 in0.0 mm 0.77 in19.6 mm
01:26 PM 34.7°F1.5°C 32.9°F0.5°C 93% 16.0 mph WSW25.7 kmh WSW 24.0 mph38.6 kmh 29.84 in1010.5 mb 0.00 in0.0 mm 0.00 in0.0 mm 0.77 in19.6 mm
01:28 PM 34.7°F1.5°C 32.9°F0.5°C 93% 16.0 mph WSW25.7 kmh WSW 24.0 mph38.6 kmh 29.85 in1010.8 mb 0.00 in0.0 mm 0.00 in0.0 mm 0.77 in19.6 mm
01:30 PM 34.7°F1.5°C 32.9°F0.5°C 93% 16.0 mph WSW25.7 kmh WSW 24.0 mph38.6 kmh 29.84 in1010.5 mb 0.00 in0.0 mm 0.00 in0.0 mm 0.77 in19.6 mm
01:32 PM 34.7°F1.5°C 32.9°F0.5°C 93% 17.0 mph WSW27.4 kmh WSW 26.0 mph41.8 kmh 29.84 in1010.5 mb 0.00 in0.0 mm 0.00 in0.0 mm 0.77 in19.6 mm
01:34 PM 34.7°F1.5°C 32.9°F0.5°C 93% 17.0 mph WSW27.4 kmh WSW 26.0 mph41.8 kmh 29.84 in1010.5 mb 0.00 in0.0 mm 0.00 in0.0 mm 0.77 in19.6 mm
01:36 PM 34.7°F1.5°C 32.6°F0.3°C 92% 18.0 mph WSW29.0 kmh WSW 27.0 mph43.5 kmh 29.85 in1010.8 mb 0.00 in0.0 mm 0.00 in0.0 mm 0.77 in19.6 mm
01:38 PM 34.7°F1.5°C 32.6°F0.3°C 92% 20.0 mph WSW32.2 kmh WSW 27.0 mph43.5 kmh 29.85 in1010.8 mb 0.00 in0.0 mm 0.00 in0.0 mm 0.77 in19.6 mm
01:40 PM 34.6°F1.4°C 32.5°F0.3°C 92% 20.0 mph WSW32.2 kmh WSW 27.0 mph43.5 kmh 29.85 in1010.8 mb 0.00 in0.0 mm 0.00 in0.0 mm 0.77 in19.6 mm
01:42 PM 34.5°F1.4°C 32.4°F0.2°C 92% 20.0 mph WSW32.2 kmh WSW 30.0 mph48.3 kmh 29.86 in1011.2 mb 0.00 in0.0 mm 0.00 in0.0 mm 0.77 in19.6 mm
01:44 PM 34.2°F1.2°C 31.8°F-0.1°C 91% 21.0 mph WSW33.8 kmh WSW 33.0 mph53.1 kmh 29.86 in1011.2 mb 0.00 in0.0 mm 0.00 in0.0 mm 0.77 in19.6 mm
01:46 PM 33.8°F1.0°C 31.7°F-0.2°C 92% 22.0 mph WSW35.4 kmh WSW 33.0 mph53.1 kmh 29.86 in1011.2 mb 0.00 in0.0 mm 0.00 in0.0 mm 0.77 in19.6 mm
01:48 PM 33.5°F0.8°C 31.7°F-0.2°C 93% 22.0 mph WSW35.4 kmh WSW 33.0 mph53.1 kmh 29.86 in1011.2 mb 0.00 in0.0 mm 0.00 in0.0 mm 0.77 in19.6 mm
01:50 PM 33.2°F0.7°C 31.4°F-0.3°C 93% 22.0 mph WSW35.4 kmh WSW 33.0 mph53.1 kmh 29.86 in1011.2 mb 0.00 in0.0 mm 0.00 in0.0 mm 0.77 in19.6 mm
01:52 PM 32.8°F0.4°C 31.0°F-0.6°C 93% 22.0 mph WSW35.4 kmh WSW 33.0 mph53.1 kmh 29.86 in1011.2 mb 0.00 in0.0 mm 0.00 in0.0 mm 0.77 in19.6 mm
01:54 PM 32.2°F0.1°C 30.4°F-0.9°C 93% 21.0 mph W33.8 kmh W 28.0 mph45.1 kmh 29.86 in1011.2 mb 0.00 in0.0 mm 0.00 in0.0 mm 0.77 in19.6 mm
01:56 PM 31.8°F-0.1°C 30.3°F-0.9°C 94% 20.0 mph W32.2 kmh W 28.0 mph45.1 kmh 29.86 in1011.2 mb 0.00 in0.0 mm 0.00 in0.0 mm 0.77 in19.6 mm
01:58 PM 31.6°F-0.2°C 30.1°F-1.1°C 94% 20.0 mph W32.2 kmh W 28.0 mph45.1 kmh 29.87 in1011.5 mb 0.00 in0.0 mm 0.00 in0.0 mm 0.77 in19.6 mm
02:00 PM 31.3°F-0.4°C 29.8°F-1.2°C 94% 20.0 mph W32.2 kmh W 28.0 mph45.1 kmh 29.87 in1011.5 mb 0.00 in0.0 mm 0.00 in0.0 mm 0.77 in19.6 mm
02:02 PM 31.0°F-0.6°C 29.2°F-1.6°C 93% 20.0 mph W32.2 kmh W 28.0 mph45.1 kmh 29.87 in1011.5 mb 0.00 in0.0 mm 0.00 in0.0 mm 0.77 in19.6 mm
02:04 PM 30.8°F-0.7°C 29.3°F-1.5°C 94% 19.0 mph W30.6 kmh W 28.0 mph45.1 kmh 29.87 in1011.5 mb 0.00 in0.0 mm 0.00 in0.0 mm 0.77 in19.6 mm
02:06 PM 30.8°F-0.7°C 29.0°F-1.7°C 93% 19.0 mph W30.6 kmh W 28.0 mph45.1 kmh 29.87 in1011.5 mb 0.00 in0.0 mm 0.00 in0.0 mm 0.77 in19.6 mm
02:08 PM 30.7°F-0.7°C 28.9°F-1.7°C 93% 19.0 mph W30.6 kmh W 28.0 mph45.1 kmh 29.87 in1011.5 mb 0.00 in0.0 mm 0.00 in0.0 mm 0.77 in19.6 mm
02:10 PM 30.5°F-0.8°C 28.7°F-1.8°C 93% 19.0 mph W30.6 kmh W 28.0 mph45.1 kmh 29.88 in1011.9 mb 0.00 in0.0 mm 0.00 in0.0 mm 0.77 in19.6 mm
02:12 PM 30.3°F-0.9°C 28.5°F-1.9°C 93% 20.0 mph W32.2 kmh W 28.0 mph45.1 kmh 29.88 in1011.9 mb 0.00 in0.0 mm 0.00 in0.0 mm 0.77 in19.6 mm
02:14 PM 29.9°F-1.2°C 27.9°F-2.3°C 92% 21.0 mph W33.8 kmh W 33.0 mph53.1 kmh 29.88 in1011.9 mb 0.00 in0.0 mm 0.00 in0.0 mm 0.77 in19.6 mm
02:16 PM 29.5°F-1.4°C 27.5°F-2.5°C 92% 22.0 mph W35.4 kmh W 33.0 mph53.1 kmh 29.89 in1012.2 mb 0.00 in0.0 mm 0.00 in0.0 mm 0.77 in19.6 mm
02:18 PM 29.1°F-1.6°C 27.1°F-2.7°C 92% 23.0 mph W37.0 kmh W 33.0 mph53.1 kmh 29.89 in1012.2 mb 0.00 in0.0 mm 0.00 in0.0 mm 0.77 in19.6 mm
02:20 PM 28.7°F-1.8°C 26.7°F-2.9°C 92% 24.0 mph W38.6 kmh W 33.0 mph53.1 kmh 29.89 in1012.2 mb 0.00 in0.0 mm 0.00 in0.0 mm 0.77 in19.6 mm
02:22 PM 28.4°F-2.0°C 26.4°F-3.1°C 92% 25.0 mph W40.2 kmh W 33.0 mph53.1 kmh 29.89 in1012.2 mb 0.00 in0.0 mm 0.00 in0.0 mm 0.77 in19.6 mm
02:24 PM 28.2°F-2.1°C 26.2°F-3.2°C 92% 26.0 mph W41.8 kmh W 33.0 mph53.1 kmh 29.89 in1012.2 mb 0.00 in0.0 mm 0.00 in0.0 mm 0.77 in19.6 mm
02:26 PM 28.2°F-2.1°C 26.2°F-3.2°C 92% 26.0 mph W41.8 kmh W 33.0 mph53.1 kmh 29.90 in1012.5 mb 0.00 in0.0 mm 0.00 in0.0 mm 0.77 in19.6 mm
02:28 PM 27.4°F-2.6°C 25.4°F-3.7°C 92% 26.0 mph W41.8 kmh W 33.0 mph53.1 kmh 29.91 in1012.9 mb 0.00 in0.0 mm 0.00 in0.0 mm 0.77 in19.6 mm
02:30 PM 27.2°F-2.7°C 25.2°F-3.8°C 92% 26.0 mph W41.8 kmh W 33.0 mph53.1 kmh 29.91 in1012.9 mb 0.00 in0.0 mm 0.00 in0.0 mm 0.77 in19.6 mm
02:32 PM 27.1°F-2.7°C 25.1°F-3.8°C 92% 26.0 mph W41.8 kmh W 33.0 mph53.1 kmh 29.91 in1012.9 mb 0.00 in0.0 mm 0.00 in0.0 mm 0.77 in19.6 mm
02:34 PM 27.1°F-2.7°C 25.1°F-3.8°C 92% 25.0 mph W40.2 kmh W 33.0 mph53.1 kmh 29.91 in1012.9 mb 0.00 in0.0 mm 0.00 in0.0 mm 0.77 in19.6 mm
02:36 PM 27.0°F-2.8°C 24.7°F-4.1°C 91% 25.0 mph W40.2 kmh W 33.0 mph53.1 kmh 29.91 in1012.9 mb 0.00 in0.0 mm 0.00 in0.0 mm 0.77 in19.6 mm
02:38 PM 27.0°F-2.8°C 25.0°F-3.9°C 92% 24.0 mph W38.6 kmh W 32.0 mph51.5 kmh 29.91 in1012.9 mb 0.00 in0.0 mm 0.00 in0.0 mm 0.77 in19.6 mm
02:40 PM 27.1°F-2.7°C 25.1°F-3.8°C 92% 23.0 mph W37.0 kmh W 32.0 mph51.5 kmh 29.91 in1012.9 mb 0.00 in0.0 mm 0.00 in0.0 mm 0.77 in19.6 mm
02:42 PM 27.1°F-2.7°C 25.1°F-3.8°C 92% 23.0 mph W37.0 kmh W 32.0 mph51.5 kmh 29.91 in1012.9 mb 0.00 in0.0 mm 0.00 in0.0 mm 0.77 in19.6 mm
02:44 PM 27.0°F-2.8°C 25.0°F-3.9°C 92% 23.0 mph W37.0 kmh W 31.0 mph49.9 kmh 29.91 in1012.9 mb 0.00 in0.0 mm 0.00 in0.0 mm 0.77 in19.6 mm
02:46 PM 27.0°F-2.8°C 25.0°F-3.9°C 92% 22.0 mph W35.4 kmh W 31.0 mph49.9 kmh 29.92 in1013.2 mb 0.00 in0.0 mm 0.00 in0.0 mm 0.77 in19.6 mm
02:48 PM 26.7°F-2.9°C 24.4°F-4.2°C 91% 22.0 mph W35.4 kmh W 31.0 mph49.9 kmh 29.92 in1013.2 mb 0.00 in0.0 mm 0.00 in0.0 mm 0.77 in19.6 mm
02:50 PM 26.2°F-3.2°C 23.9°F-4.5°C 91% 23.0 mph W37.0 kmh W 32.0 mph51.5 kmh 29.93 in1013.5 mb 0.00 in0.0 mm 0.00 in0.0 mm 0.77 in19.6 mm
02:52 PM 25.8°F-3.4°C 23.5°F-4.7°C 91% 24.0 mph W38.6 kmh W 32.0 mph51.5 kmh 29.93 in1013.5 mb 0.00 in0.0 mm 0.00 in0.0 mm 0.77 in19.6 mm
02:54 PM 25.7°F-3.5°C 23.4°F-4.8°C 91% 24.0 mph W38.6 kmh W 32.0 mph51.5 kmh 29.93 in1013.5 mb 0.00 in0.0 mm 0.00 in0.0 mm 0.77 in19.6 mm
02:56 PM 25.7°F-3.5°C 23.7°F-4.6°C 92% 24.0 mph W38.6 kmh W 32.0 mph51.5 kmh 29.93 in1013.5 mb 0.00 in0.0 mm 0.00 in0.0 mm 0.77 in19.6 mm
02:58 PM 25.6°F-3.6°C 23.3°F-4.8°C 91% 24.0 mph W38.6 kmh W 32.0 mph51.5 kmh 29.93 in1013.5 mb 0.00 in0.0 mm 0.00 in0.0 mm 0.77 in19.6 mm
03:00 PM 25.6°F-3.6°C 23.6°F-4.7°C 92% 23.0 mph W37.0 kmh W 30.0 mph48.3 kmh 29.94 in1013.9 mb 0.00 in0.0 mm 0.00 in0.0 mm 0.77 in19.6 mm
03:02 PM 25.6°F-3.6°C 23.3°F-4.8°C 91% 23.0 mph W37.0 kmh W 31.0 mph49.9 kmh 29.94 in1013.9 mb 0.00 in0.0 mm 0.00 in0.0 mm 0.77 in19.6 mm
03:04 PM 25.4°F-3.7°C 22.9°F-5.1°C 90% 23.0 mph W37.0 kmh W 31.0 mph49.9 kmh 29.94 in1013.9 mb 0.00 in0.0 mm 0.00 in0.0 mm 0.77 in19.6 mm
03:06 PM 25.3°F-3.7°C 22.8°F-5.1°C 90% 23.0 mph W37.0 kmh W 32.0 mph51.5 kmh 29.95 in1014.2 mb 0.00 in0.0 mm 0.00 in0.0 mm 0.77 in19.6 mm
03:08 PM 25.1°F-3.8°C 22.6°F-5.2°C 90% 23.0 mph W37.0 kmh W 32.0 mph51.5 kmh 29.95 in1014.2 mb 0.00 in0.0 mm 0.00 in0.0 mm 0.77 in19.6 mm
03:10 PM 24.9°F-3.9°C 22.6°F-5.2°C 91% 23.0 mph W37.0 kmh W 32.0 mph51.5 kmh 29.95 in1014.2 mb 0.00 in0.0 mm 0.00 in0.0 mm 0.77 in19.6 mm
03:12 PM 24.7°F-4.1°C 22.2°F-5.4°C 90% 23.0 mph W37.0 kmh W 32.0 mph51.5 kmh 29.95 in1014.2 mb 0.00 in0.0 mm 0.00 in0.0 mm 0.77 in19.6 mm
03:14 PM 24.5°F-4.2°C 22.0°F-5.6°C 90% 22.0 mph W35.4 kmh W 32.0 mph51.5 kmh 29.95 in1014.2 mb 0.00 in0.0 mm 0.00 in0.0 mm 0.77 in19.6 mm
03:16 PM 24.4°F-4.2°C 21.9°F-5.6°C 90% 22.0 mph W35.4 kmh W 31.0 mph49.9 kmh 29.95 in1014.2 mb 0.00 in0.0 mm 0.00 in0.0 mm 0.77 in19.6 mm
03:18 PM 24.5°F-4.2°C 22.2°F-5.4°C 91% 22.0 mph W35.4 kmh W 31.0 mph49.9 kmh 29.95 in1014.2 mb 0.00 in0.0 mm 0.00 in0.0 mm 0.77 in19.6 mm
03:20 PM 24.5°F-4.2°C 22.2°F-5.4°C 91% 21.0 mph W33.8 kmh W 31.0 mph49.9 kmh 29.95 in1014.2 mb 0.00 in0.0 mm 0.00 in0.0 mm 0.77 in19.6 mm
03:22 PM 24.5°F-4.2°C 22.0°F-5.6°C 90% 21.0 mph W33.8 kmh W 29.0 mph46.7 kmh 29.95 in1014.2 mb 0.00 in0.0 mm 0.00 in0.0 mm 0.77 in19.6 mm
03:24 PM 24.5°F-4.2°C 22.2°F-5.4°C 91% 20.0 mph W32.2 kmh W 29.0 mph46.7 kmh 29.96 in1014.6 mb 0.00 in0.0 mm 0.00 in0.0 mm 0.77 in19.6 mm
03:26 PM 24.4°F-4.2°C 22.2°F-5.4°C 91% 21.0 mph W33.8 kmh W 29.0 mph46.7 kmh 29.96 in1014.6 mb 0.00 in0.0 mm 0.00 in0.0 mm 0.77 in19.6 mm
03:28 PM 24.5°F-4.2°C 22.2°F-5.4°C 91% 21.0 mph W33.8 kmh W 29.0 mph46.7 kmh 29.96 in1014.6 mb 0.00 in0.0 mm 0.00 in0.0 mm 0.77 in19.6 mm
03:30 PM 24.5°F-4.2°C 22.2°F-5.4°C 91% 20.0 mph W32.2 kmh W 29.0 mph46.7 kmh 29.96 in1014.6 mb 0.00 in0.0 mm 0.00 in0.0 mm 0.77 in19.6 mm
03:32 PM 24.5°F-4.2°C 22.2°F-5.4°C 91% 20.0 mph W32.2 kmh W 27.0 mph43.5 kmh 29.96 in1014.6 mb 0.00 in0.0 mm 0.00 in0.0 mm 0.77 in19.6 mm
03:34 PM 24.4°F-4.2°C 21.9°F-5.6°C 90% 20.0 mph W32.2 kmh W 28.0 mph45.1 kmh 29.97 in1014.9 mb 0.00 in0.0 mm 0.00 in0.0 mm 0.77 in19.6 mm
03:36 PM 24.2°F-4.3°C 21.4°F-5.9°C 89% 20.0 mph W32.2 kmh W 29.0 mph46.7 kmh 29.97 in1014.9 mb 0.00 in0.0 mm 0.00 in0.0 mm 0.77 in19.6 mm
03:38 PM 24.0°F-4.4°C 21.5°F-5.8°C 90% 20.0 mph W32.2 kmh W 29.0 mph46.7 kmh 29.97 in1014.9 mb 0.00 in0.0 mm 0.00 in0.0 mm 0.77 in19.6 mm
03:40 PM 23.5°F-4.7°C 20.7°F-6.3°C 89% 21.0 mph W33.8 kmh W 29.0 mph46.7 kmh 29.98 in1015.2 mb 0.00 in0.0 mm 0.00 in0.0 mm 0.77 in19.6 mm
03:42 PM 23.3°F-4.8°C 20.5°F-6.4°C 89% 22.0 mph W35.4 kmh W 29.0 mph46.7 kmh 29.98 in1015.2 mb 0.00 in0.0 mm 0.00 in0.0 mm 0.77 in19.6 mm
03:44 PM 23.1°F-4.9°C 20.3°F-6.5°C 89% 22.0 mph W35.4 kmh W 31.0 mph49.9 kmh 29.98 in1015.2 mb 0.00 in0.0 mm 0.00 in0.0 mm 0.77 in19.6 mm
03:46 PM 22.9°F-5.1°C 19.9°F-6.7°C 88% 22.0 mph W35.4 kmh W 31.0 mph49.9 kmh 29.98 in1015.2 mb 0.00 in0.0 mm 0.00 in0.0 mm 0.77 in19.6 mm
03:48 PM 22.7°F-5.2°C 19.7°F-6.8°C 88% 23.0 mph W37.0 kmh W 31.0 mph49.9 kmh 29.99 in1015.6 mb 0.00 in0.0 mm 0.00 in0.0 mm 0.77 in19.6 mm
03:50 PM 22.9°F-5.1°C 20.4°F-6.4°C 90% 23.0 mph W37.0 kmh W 31.0 mph49.9 kmh 29.99 in1015.6 mb 0.00 in0.0 mm 0.00 in0.0 mm 0.77 in19.6 mm
03:52 PM 22.7°F-5.2°C 19.7°F-6.8°C 88% 24.0 mph W38.6 kmh W 32.0 mph51.5 kmh 29.99 in1015.6 mb 0.00 in0.0 mm 0.00 in0.0 mm 0.77 in19.6 mm
03:54 PM 22.5°F-5.3°C 19.5°F-6.9°C 88% 24.0 mph W38.6 kmh W 32.0 mph51.5 kmh 29.99 in1015.6 mb 0.00 in0.0 mm 0.00 in0.0 mm 0.77 in19.6 mm
03:56 PM 22.5°F-5.3°C 19.7°F-6.8°C 89% 24.0 mph W38.6 kmh W 32.0 mph51.5 kmh 29.99 in1015.6 mb 0.00 in0.0 mm 0.00 in0.0 mm 0.77 in19.6 mm
03:58 PM 22.5°F-5.3°C 19.7°F-6.8°C 89% 23.0 mph W37.0 kmh W 32.0 mph51.5 kmh 30.00 in1015.9 mb 0.00 in0.0 mm 0.00 in0.0 mm 0.77 in19.6 mm
04:00 PM 22.4°F-5.3°C 19.6°F-6.9°C 89% 23.0 mph W37.0 kmh W 32.0 mph51.5 kmh 30.00 in1015.9 mb 0.00 in0.0 mm 0.00 in0.0 mm 0.77 in19.6 mm
04:02 PM 22.2°F-5.4°C 19.2°F-7.1°C 88% 23.0 mph W37.0 kmh W 31.0 mph49.9 kmh 30.00 in1015.9 mb 0.00 in0.0 mm 0.00 in0.0 mm 0.77 in19.6 mm
04:04 PM 22.2°F-5.4°C 19.5°F-6.9°C 89% 23.0 mph W37.0 kmh W 31.0 mph49.9 kmh 30.00 in1015.9 mb 0.00 in0.0 mm 0.00 in0.0 mm 0.77 in19.6 mm
04:06 PM 22.0°F-5.6°C 19.0°F-7.2°C 88% 23.0 mph W37.0 kmh W 31.0 mph49.9 kmh 30.00 in1015.9 mb 0.00 in0.0 mm 0.00 in0.0 mm 0.77 in19.6 mm
04:08 PM 21.6°F-5.8°C 18.3°F-7.6°C 87% 23.0 mph W37.0 kmh W 32.0 mph51.5 kmh 30.01 in1016.3 mb 0.00 in0.0 mm 0.00 in0.0 mm 0.77 in19.6 mm
04:10 PM 21.3°F-5.9°C 18.0°F-7.8°C 87% 24.0 mph W38.6 kmh W 32.0 mph51.5 kmh 30.01 in1016.3 mb 0.00 in0.0 mm 0.00 in0.0 mm 0.77 in19.6 mm
04:12 PM 21.4°F-5.9°C 18.7°F-7.4°C 89% 23.0 mph W37.0 kmh W 32.0 mph51.5 kmh 30.01 in1016.3 mb 0.00 in0.0 mm 0.00 in0.0 mm 0.77 in19.6 mm
04:14 PM 21.5°F-5.8°C 18.8°F-7.3°C 89% 23.0 mph W37.0 kmh W 32.0 mph51.5 kmh 30.01 in1016.3 mb 0.00 in0.0 mm 0.00 in0.0 mm 0.77 in19.6 mm
04:16 PM 21.6°F-5.8°C 18.9°F-7.3°C 89% 22.0 mph W35.4 kmh W 32.0 mph51.5 kmh 30.01 in1016.3 mb 0.00 in0.0 mm 0.00 in0.0 mm 0.77 in19.6 mm
04:18 PM 21.6°F-5.8°C 19.1°F-7.2°C 90% 21.0 mph W33.8 kmh W 32.0 mph51.5 kmh 30.01 in1016.3 mb 0.00 in0.0 mm 0.00 in0.0 mm 0.77 in19.6 mm
04:20 PM 21.6°F-5.8°C 18.9°F-7.3°C 89% 20.0 mph W32.2 kmh W 29.0 mph46.7 kmh 30.01 in1016.3 mb 0.00 in0.0 mm 0.00 in0.0 mm 0.77 in19.6 mm
04:22 PM 21.6°F-5.8°C 18.6°F-7.4°C 88% 20.0 mph W32.2 kmh W 32.0 mph51.5 kmh 30.01 in1016.3 mb 0.00 in0.0 mm 0.00 in0.0 mm 0.77 in19.6 mm
04:24 PM 21.4°F-5.9°C 18.1°F-7.7°C 87% 21.0 mph W33.8 kmh W 32.0 mph51.5 kmh 30.01 in1016.3 mb 0.00 in0.0 mm 0.00 in0.0 mm 0.77 in19.6 mm
04:26 PM 21.3°F-5.9°C 18.3°F-7.6°C 88% 21.0 mph W33.8 kmh W 32.0 mph51.5 kmh 30.01 in1016.3 mb 0.00 in0.0 mm 0.00 in0.0 mm 0.77 in19.6 mm
04:28 PM 21.1°F-6.1°C 17.8°F-7.9°C 87% 22.0 mph W35.4 kmh W 32.0 mph51.5 kmh 30.00 in1015.9 mb 0.00 in0.0 mm 0.00 in0.0 mm 0.77 in19.6 mm
04:30 PM 21.0°F-6.1°C 17.7°F-7.9°C 87% 22.0 mph W35.4 kmh W 32.0 mph51.5 kmh 30.01 in1016.3 mb 0.00 in0.0 mm 0.00 in0.0 mm 0.77 in19.6 mm
04:32 PM 20.8°F-6.2°C 17.8°F-7.9°C 88% 22.0 mph W35.4 kmh W 35.0 mph56.3 kmh 30.01 in1016.3 mb 0.00 in0.0 mm 0.00 in0.0 mm 0.77 in19.6 mm
04:34 PM 20.5°F-6.4°C 17.2°F-8.2°C 87% 22.0 mph W35.4 kmh W 35.0 mph56.3 kmh 30.02 in1016.6 mb 0.00 in0.0 mm 0.00 in0.0 mm 0.77 in19.6 mm
04:36 PM 19.9°F-6.7°C 16.1°F-8.8°C 85% 23.0 mph W37.0 kmh W 35.0 mph56.3 kmh 30.02 in1016.6 mb 0.00 in0.0 mm 0.00 in0.0 mm 0.77 in19.6 mm
04:38 PM 19.9°F-6.7°C 16.7°F-8.5°C 87% 23.0 mph W37.0 kmh W 35.0 mph56.3 kmh 30.02 in1016.6 mb 0.00 in0.0 mm 0.00 in0.0 mm 0.77 in19.6 mm
04:40 PM 19.9°F-6.7°C 16.7°F-8.5°C 87% 23.0 mph W37.0 kmh W 35.0 mph56.3 kmh 30.02 in1016.6 mb 0.00 in0.0 mm 0.00 in0.0 mm 0.77 in19.6 mm
04:42 PM 20.0°F-6.7°C 17.0°F-8.3°C 88% 24.0 mph W38.6 kmh W 33.0 mph53.1 kmh 30.02 in1016.6 mb 0.00 in0.0 mm 0.00 in0.0 mm 0.77 in19.6 mm
04:44 PM 20.1°F-6.6°C 16.9°F-8.4°C 87% 23.0 mph W37.0 kmh W 32.0 mph51.5 kmh 30.02 in1016.6 mb 0.00 in0.0 mm 0.00 in0.0 mm 0.77 in19.6 mm
04:46 PM 19.9°F-6.7°C 16.4°F-8.7°C 86% 22.0 mph W35.4 kmh W 30.0 mph48.3 kmh 30.02 in1016.6 mb 0.00 in0.0 mm 0.00 in0.0 mm 0.77 in19.6 mm
04:48 PM 19.6°F-6.9°C 16.1°F-8.8°C 86% 22.0 mph W35.4 kmh W 30.0 mph48.3 kmh 30.03 in1016.9 mb 0.00 in0.0 mm 0.00 in0.0 mm 0.77 in19.6 mm
04:50 PM 19.6°F-6.9°C 16.4°F-8.7°C 87% 22.0 mph W35.4 kmh W 30.0 mph48.3 kmh 30.03 in1016.9 mb 0.00 in0.0 mm 0.00 in0.0 mm 0.77 in19.6 mm
04:52 PM 19.6°F-6.9°C 16.4°F-8.7°C 87% 22.0 mph W35.4 kmh W 30.0 mph48.3 kmh 30.03 in1016.9 mb 0.00 in0.0 mm 0.00 in0.0 mm 0.77 in19.6 mm
04:54 PM 19.5°F-6.9°C 16.0°F-8.9°C 86% 22.0 mph W35.4 kmh W 30.0 mph48.3 kmh 30.03 in1016.9 mb 0.00 in0.0 mm 0.00 in0.0 mm 0.77 in19.6 mm
04:56 PM 19.4°F-7.0°C 16.2°F-8.8°C 87% 23.0 mph W37.0 kmh W 30.0 mph48.3 kmh 30.03 in1016.9 mb 0.00 in0.0 mm 0.00 in0.0 mm 0.77 in19.6 mm
04:58 PM 19.4°F-7.0°C 16.2°F-8.8°C 87% 22.0 mph W35.4 kmh W 29.0 mph46.7 kmh 30.04 in1017.3 mb 0.00 in0.0 mm 0.00 in0.0 mm 0.77 in19.6 mm
05:00 PM 19.4°F-7.0°C 16.2°F-8.8°C 87% 22.0 mph W35.4 kmh W 29.0 mph46.7 kmh 30.03 in1016.9 mb 0.00 in0.0 mm 0.00 in0.0 mm 0.77 in19.6 mm
05:02 PM 19.4°F-7.0°C 16.2°F-8.8°C 87% 22.0 mph W35.4 kmh W 29.0 mph46.7 kmh 30.04 in1017.3 mb 0.00 in0.0 mm 0.00 in0.0 mm 0.77 in19.6 mm
05:04 PM 19.4°F-7.0°C 16.2°F-8.8°C 87% 21.0 mph W33.8 kmh W 29.0 mph46.7 kmh 30.04 in1017.3 mb 0.00 in0.0 mm 0.00 in0.0 mm 0.77 in19.6 mm
05:06 PM 19.5°F-6.9°C 16.8°F-8.4°C 89% 20.0 mph W32.2 kmh W 29.0 mph46.7 kmh 30.04 in1017.3 mb 0.00 in0.0 mm 0.00 in0.0 mm 0.77 in19.6 mm
05:08 PM 19.6°F-6.9°C 16.9°F-8.4°C 89% 19.0 mph W30.6 kmh W 26.0 mph41.8 kmh 30.04 in1017.3 mb 0.00 in0.0 mm 0.00 in0.0 mm 0.77 in19.6 mm
05:10 PM 19.3°F-7.1°C 16.3°F-8.7°C 88% 19.0 mph W30.6 kmh W 30.0 mph48.3 kmh 30.04 in1017.3 mb 0.00 in0.0 mm 0.00 in0.0 mm 0.77 in19.6 mm
05:12 PM 19.3°F-7.1°C 16.3°F-8.7°C 88% 19.0 mph W30.6 kmh W 31.0 mph49.9 kmh 30.04 in1017.3 mb 0.00 in0.0 mm 0.00 in0.0 mm 0.77 in19.6 mm
05:14 PM 19.1°F-7.2°C 15.3°F-9.3°C 85% 20.0 mph W32.2 kmh W 33.0 mph53.1 kmh 30.04 in1017.3 mb 0.00 in0.0 mm 0.00 in0.0 mm 0.77 in19.6 mm
05:16 PM 18.7°F-7.4°C 14.7°F-9.6°C 84% 22.0 mph W35.4 kmh W 33.0 mph53.1 kmh 30.05 in1017.6 mb 0.00 in0.0 mm 0.00 in0.0 mm 0.77 in19.6 mm
05:18 PM 18.6°F-7.4°C 14.6°F-9.7°C 84% 24.0 mph W38.6 kmh W 34.0 mph54.7 kmh 30.05 in1017.6 mb 0.00 in0.0 mm 0.00 in0.0 mm 0.77 in19.6 mm
05:20 PM 18.4°F-7.6°C 14.1°F-9.9°C 83% 24.0 mph W38.6 kmh W 34.0 mph54.7 kmh 30.05 in1017.6 mb 0.00 in0.0 mm 0.00 in0.0 mm 0.77 in19.6 mm
05:22 PM 18.2°F-7.7°C 14.2°F-9.9°C 84% 26.0 mph W41.8 kmh W 34.0 mph54.7 kmh 30.06 in1017.9 mb 0.00 in0.0 mm 0.00 in0.0 mm 0.77 in19.6 mm
05:24 PM 18.2°F-7.7°C 14.2°F-9.9°C 84% 26.0 mph W41.8 kmh W 34.0 mph54.7 kmh 30.06 in1017.9 mb 0.00 in0.0 mm 0.00 in0.0 mm 0.77 in19.6 mm
05:26 PM 18.2°F-7.7°C 14.4°F-9.8°C 85% 25.0 mph W40.2 kmh W 34.0 mph54.7 kmh 30.06 in1017.9 mb 0.00 in0.0 mm 0.00 in0.0 mm 0.77 in19.6 mm
05:28 PM 18.3°F-7.6°C 14.5°F-9.7°C 85% 26.0 mph W41.8 kmh W 34.0 mph54.7 kmh 30.06 in1017.9 mb 0.00 in0.0 mm 0.00 in0.0 mm 0.77 in19.6 mm
05:30 PM 18.5°F-7.5°C 15.0°F-9.4°C 86% 24.0 mph W38.6 kmh W 33.0 mph53.1 kmh 30.06 in1017.9 mb 0.00 in0.0 mm 0.00 in0.0 mm 0.77 in19.6 mm
05:32 PM 18.4°F-7.6°C 14.6°F-9.7°C 85% 23.0 mph W37.0 kmh W 33.0 mph53.1 kmh 30.07 in1018.3 mb 0.00 in0.0 mm 0.00 in0.0 mm 0.77 in19.6 mm
05:34 PM 18.3°F-7.6°C 14.5°F-9.7°C 85% 23.0 mph W37.0 kmh W 34.0 mph54.7 kmh 30.07 in1018.3 mb 0.00 in0.0 mm 0.00 in0.0 mm 0.77 in19.6 mm
05:36 PM 18.2°F-7.7°C 14.4°F-9.8°C 85% 23.0 mph W37.0 kmh W 34.0 mph54.7 kmh 30.07 in1018.3 mb 0.00 in0.0 mm 0.00 in0.0 mm 0.77 in19.6 mm
05:38 PM 18.0°F-7.8°C 14.0°F-10.0°C 84% 22.0 mph W35.4 kmh W 34.0 mph54.7 kmh 30.07 in1018.3 mb 0.00 in0.0 mm 0.00 in0.0 mm 0.77 in19.6 mm
05:40 PM 17.9°F-7.8°C 13.9°F-10.1°C 84% 23.0 mph W37.0 kmh W 34.0 mph54.7 kmh 30.07 in1018.3 mb 0.00 in0.0 mm 0.00 in0.0 mm 0.77 in19.6 mm
05:42 PM 17.9°F-7.8°C 13.6°F-10.2°C 83% 24.0 mph W38.6 kmh W 34.0 mph54.7 kmh 30.07 in1018.3 mb 0.00 in0.0 mm 0.00 in0.0 mm 0.77 in19.6 mm
05:44 PM 17.9°F-7.8°C 13.6°F-10.2°C 83% 24.0 mph W38.6 kmh W 31.0 mph49.9 kmh 30.07 in1018.3 mb 0.00 in0.0 mm 0.00 in0.0 mm 0.77 in19.6 mm
05:46 PM 17.9°F-7.8°C 13.9°F-10.1°C 84% 24.0 mph W38.6 kmh W 31.0 mph49.9 kmh 30.07 in1018.3 mb 0.00 in0.0 mm 0.00 in0.0 mm 0.77 in19.6 mm
05:48 PM 17.8°F-7.9°C 13.8°F-10.1°C 84% 24.0 mph W38.6 kmh W 31.0 mph49.9 kmh 30.07 in1018.3 mb 0.00 in0.0 mm 0.00 in0.0 mm 0.77 in19.6 mm
05:50 PM 17.7°F-7.9°C 13.7°F-10.2°C 84% 24.0 mph W38.6 kmh W 31.0 mph49.9 kmh 30.07 in1018.3 mb 0.00 in0.0 mm 0.00 in0.0 mm 0.77 in19.6 mm
05:52 PM 17.7°F-7.9°C 14.5°F-9.7°C 87% 23.0 mph W37.0 kmh W 30.0 mph48.3 kmh 30.07 in1018.3 mb 0.00 in0.0 mm 0.00 in0.0 mm 0.77 in19.6 mm
05:54 PM 17.8°F-7.9°C 14.6°F-9.7°C 87% 22.0 mph W35.4 kmh W 30.0 mph48.3 kmh 30.07 in1018.3 mb 0.00 in0.0 mm 0.00 in0.0 mm 0.77 in19.6 mm
05:56 PM 17.6°F-8.0°C 14.4°F-9.8°C 87% 22.0 mph W35.4 kmh W 30.0 mph48.3 kmh 30.07 in1018.3 mb 0.00 in0.0 mm 0.00 in0.0 mm 0.77 in19.6 mm
05:58 PM 17.5°F-8.1°C 13.8°F-10.1°C 85% 22.0 mph W35.4 kmh W 30.0 mph48.3 kmh 30.07 in1018.3 mb 0.00 in0.0 mm 0.00 in0.0 mm 0.77 in19.6 mm
06:00 PM 17.5°F-8.1°C 13.8°F-10.1°C 85% 21.0 mph W33.8 kmh W 30.0 mph48.3 kmh 30.07 in1018.3 mb 0.00 in0.0 mm 0.00 in0.0 mm 0.77 in19.6 mm
06:02 PM 17.2°F-8.2°C 12.9°F-10.6°C 83% 21.0 mph W33.8 kmh W 30.0 mph48.3 kmh 30.08 in1018.6 mb 0.00 in0.0 mm 0.00 in0.0 mm 0.77 in19.6 mm
06:04 PM 17.0°F-8.3°C 13.0°F-10.6°C 84% 23.0 mph W37.0 kmh W 30.0 mph48.3 kmh 30.07 in1018.3 mb 0.00 in0.0 mm 0.00 in0.0 mm 0.77 in19.6 mm
06:06 PM 17.1°F-8.3°C 13.4°F-10.3°C 85% 22.0 mph WSW35.4 kmh WSW 30.0 mph48.3 kmh 30.07 in1018.3 mb 0.00 in0.0 mm 0.00 in0.0 mm 0.77 in19.6 mm
06:08 PM 17.0°F-8.3°C 13.0°F-10.6°C 84% 22.0 mph WSW35.4 kmh WSW 31.0 mph49.9 kmh 30.07 in1018.3 mb 0.00 in0.0 mm 0.00 in0.0 mm 0.77 in19.6 mm
06:10 PM 17.0°F-8.3°C 13.0°F-10.6°C 84% 23.0 mph WSW37.0 kmh WSW 32.0 mph51.5 kmh 30.08 in1018.6 mb 0.00 in0.0 mm 0.00 in0.0 mm 0.77 in19.6 mm
06:12 PM 17.0°F-8.3°C 13.3°F-10.4°C 85% 23.0 mph WSW37.0 kmh WSW 32.0 mph51.5 kmh 30.08 in1018.6 mb 0.00 in0.0 mm 0.00 in0.0 mm 0.77 in19.6 mm
06:14 PM 16.8°F-8.4°C 12.5°F-10.8°C 83% 23.0 mph W37.0 kmh W 32.0 mph51.5 kmh 30.08 in1018.6 mb 0.00 in0.0 mm 0.00 in0.0 mm 0.77 in19.6 mm
06:16 PM 16.8°F-8.4°C 12.8°F-10.7°C 84% 24.0 mph WSW38.6 kmh WSW 32.0 mph51.5 kmh 30.08 in1018.6 mb 0.00 in0.0 mm 0.00 in0.0 mm 0.77 in19.6 mm
06:18 PM 16.6°F-8.6°C 12.6°F-10.8°C 84% 24.0 mph W38.6 kmh W 34.0 mph54.7 kmh 30.08 in1018.6 mb 0.00 in0.0 mm 0.00 in0.0 mm 0.77 in19.6 mm
06:20 PM 16.4°F-8.7°C 12.1°F-11.1°C 83% 24.0 mph WSW38.6 kmh WSW 35.0 mph56.3 kmh 30.08 in1018.6 mb 0.00 in0.0 mm 0.00 in0.0 mm 0.77 in19.6 mm
06:22 PM 16.3°F-8.7°C 12.0°F-11.1°C 83% 25.0 mph WSW40.2 kmh WSW 35.0 mph56.3 kmh 30.08 in1018.6 mb 0.00 in0.0 mm 0.00 in0.0 mm 0.77 in19.6 mm
06:24 PM 16.3°F-8.7°C 11.8°F-11.2°C 82% 26.0 mph WSW41.8 kmh WSW 35.0 mph56.3 kmh 30.08 in1018.6 mb 0.00 in0.0 mm 0.00 in0.0 mm 0.77 in19.6 mm
06:26 PM 16.3°F-8.7°C 12.0°F-11.1°C 83% 26.0 mph WSW41.8 kmh WSW 35.0 mph56.3 kmh 30.08 in1018.6 mb 0.00 in0.0 mm 0.00 in0.0 mm 0.77 in19.6 mm
06:28 PM 16.4°F-8.7°C 12.7°F-10.7°C 85% 26.0 mph WSW41.8 kmh WSW 35.0 mph56.3 kmh 30.09 in1019.0 mb 0.00 in0.0 mm 0.00 in0.0 mm 0.77 in19.6 mm
06:30 PM 16.4°F-8.7°C 12.4°F-10.9°C 84% 25.0 mph W40.2 kmh W 34.0 mph54.7 kmh 30.09 in1019.0 mb 0.00 in0.0 mm 0.00 in0.0 mm 0.77 in19.6 mm
06:32 PM 16.3°F-8.7°C 12.0°F-11.1°C 83% 25.0 mph W40.2 kmh W 32.0 mph51.5 kmh 30.09 in1019.0 mb 0.00 in0.0 mm 0.00 in0.0 mm 0.77 in19.6 mm
06:34 PM 16.1°F-8.8°C 11.6°F-11.3°C 82% 24.0 mph W38.6 kmh W 32.0 mph51.5 kmh 30.09 in1019.0 mb 0.00 in0.0 mm 0.00 in0.0 mm 0.77 in19.6 mm
06:36 PM 16.2°F-8.8°C 11.9°F-11.2°C 83% 24.0 mph W38.6 kmh W 32.0 mph51.5 kmh 30.09 in1019.0 mb 0.00 in0.0 mm 0.00 in0.0 mm 0.77 in19.6 mm
06:38 PM 16.2°F-8.8°C 11.9°F-11.2°C 83% 24.0 mph W38.6 kmh W 32.0 mph51.5 kmh 30.09 in1019.0 mb 0.00 in0.0 mm 0.00 in0.0 mm 0.77 in19.6 mm
06:40 PM 16.1°F-8.8°C 11.3°F-11.5°C 81% 24.0 mph W38.6 kmh W 32.0 mph51.5 kmh 30.09 in1019.0 mb 0.00 in0.0 mm 0.00 in0.0 mm 0.77 in19.6 mm
06:42 PM 16.1°F-8.8°C 11.6°F-11.3°C 82% 25.0 mph W40.2 kmh W 32.0 mph51.5 kmh 30.09 in1019.0 mb 0.00 in0.0 mm 0.00 in0.0 mm 0.77 in19.6 mm
06:44 PM 16.3°F-8.7°C 12.0°F-11.1°C 83% 24.0 mph W38.6 kmh W 32.0 mph51.5 kmh 30.09 in1019.0 mb 0.00 in0.0 mm 0.00 in0.0 mm 0.77 in19.6 mm
06:46 PM 16.2°F-8.8°C 11.7°F-11.3°C 82% 24.0 mph W38.6 kmh W 32.0 mph51.5 kmh 30.10 in1019.3 mb 0.00 in0.0 mm 0.00 in0.0 mm 0.77 in19.6 mm
06:48 PM 16.2°F-8.8°C 11.7°F-11.3°C 82% 24.0 mph W38.6 kmh W 33.0 mph53.1 kmh 30.09 in1019.0 mb 0.00 in0.0 mm 0.00 in0.0 mm 0.77 in19.6 mm
06:50 PM 16.3°F-8.7°C 11.8°F-11.2°C 82% 24.0 mph W38.6 kmh W 33.0 mph53.1 kmh 30.10 in1019.3 mb 0.00 in0.0 mm 0.00 in0.0 mm 0.77 in19.6 mm
06:52 PM 16.2°F-8.8°C 11.4°F-11.4°C 81% 24.0 mph W38.6 kmh W 33.0 mph53.1 kmh 30.10 in1019.3 mb 0.00 in0.0 mm 0.00 in0.0 mm 0.77 in19.6 mm
06:54 PM 16.3°F-8.7°C 11.8°F-11.2°C 82% 24.0 mph W38.6 kmh W 33.0 mph53.1 kmh 30.10 in1019.3 mb 0.00 in0.0 mm 0.00 in0.0 mm 0.77 in19.6 mm
06:56 PM 16.3°F-8.7°C 11.5°F-11.4°C 81% 24.0 mph W38.6 kmh W 33.0 mph53.1 kmh 30.10 in1019.3 mb 0.00 in0.0 mm 0.00 in0.0 mm 0.77 in19.6 mm
06:58 PM 16.6°F-8.6°C 12.6°F-10.8°C 84% 23.0 mph W37.0 kmh W 32.0 mph51.5 kmh 30.10 in1019.3 mb 0.00 in0.0 mm 0.00 in0.0 mm 0.77 in19.6 mm
07:00 PM 16.6°F-8.6°C 12.1°F-11.1°C 82% 22.0 mph W35.4 kmh W 32.0 mph51.5 kmh 30.10 in1019.3 mb 0.00 in0.0 mm 0.00 in0.0 mm 0.77 in19.6 mm
07:02 PM 16.4°F-8.7°C 11.6°F-11.3°C 81% 22.0 mph W35.4 kmh W 32.0 mph51.5 kmh 30.10 in1019.3 mb 0.00 in0.0 mm 0.00 in0.0 mm 0.77 in19.6 mm
07:04 PM 16.4°F-8.7°C 11.6°F-11.3°C 81% 22.0 mph W35.4 kmh W 32.0 mph51.5 kmh 30.10 in1019.3 mb 0.00 in0.0 mm 0.00 in0.0 mm 0.77 in19.6 mm
07:06 PM 16.3°F-8.7°C 11.2°F-11.6°C 80% 22.0 mph W35.4 kmh W 32.0 mph51.5 kmh 30.10 in1019.3 mb 0.00 in0.0 mm 0.00 in0.0 mm 0.77 in19.6 mm
07:08 PM 16.5°F-8.6°C 12.0°F-11.1°C 82% 22.0 mph W35.4 kmh W 32.0 mph51.5 kmh 30.10 in1019.3 mb 0.00 in0.0 mm 0.00 in0.0 mm 0.77 in19.6 mm
07:10 PM 16.3°F-8.7°C 11.5°F-11.4°C 81% 23.0 mph W37.0 kmh W 33.0 mph53.1 kmh 30.10 in1019.3 mb 0.00 in0.0 mm 0.00 in0.0 mm 0.77 in19.6 mm
07:12 PM 16.3°F-8.7°C 11.5°F-11.4°C 81% 23.0 mph W37.0 kmh W 33.0 mph53.1 kmh 30.10 in1019.3 mb 0.00 in0.0 mm 0.00 in0.0 mm 0.77 in19.6 mm
07:14 PM 16.4°F-8.7°C 11.9°F-11.2°C 82% 23.0 mph W37.0 kmh W 33.0 mph53.1 kmh 30.11 in1019.6 mb 0.00 in0.0 mm 0.00 in0.0 mm 0.77 in19.6 mm
07:16 PM 16.4°F-8.7°C 11.9°F-11.2°C 82% 22.0 mph W35.4 kmh W 33.0 mph53.1 kmh 30.11 in1019.6 mb 0.00 in0.0 mm 0.00 in0.0 mm 0.77 in19.6 mm
07:18 PM 16.6°F-8.6°C 12.6°F-10.8°C 84% 21.0 mph W33.8 kmh W 33.0 mph53.1 kmh 30.11 in1019.6 mb 0.00 in0.0 mm 0.00 in0.0 mm 0.77 in19.6 mm
07:20 PM 16.6°F-8.6°C 12.6°F-10.8°C 84% 20.0 mph W32.2 kmh W 27.0 mph43.5 kmh 30.11 in1019.6 mb 0.00 in0.0 mm 0.00 in0.0 mm 0.77 in19.6 mm
07:22 PM 16.5°F-8.6°C 12.5°F-10.8°C 84% 20.0 mph W32.2 kmh W 30.0 mph48.3 kmh 30.11 in1019.6 mb 0.00 in0.0 mm 0.00 in0.0 mm 0.77 in19.6 mm
07:24 PM 16.6°F-8.6°C 12.9°F-10.6°C 85% 20.0 mph W32.2 kmh W 30.0 mph48.3 kmh 30.11 in1019.6 mb 0.00 in0.0 mm 0.00 in0.0 mm 0.77 in19.6 mm
07:26 PM 16.6°F-8.6°C 12.3°F-10.9°C 83% 19.0 mph W30.6 kmh W 30.0 mph48.3 kmh 30.11 in1019.6 mb 0.00 in0.0 mm 0.00 in0.0 mm 0.77 in19.6 mm
07:28 PM 16.5°F-8.6°C 12.2°F-11.0°C 83% 20.0 mph W32.2 kmh W 30.0 mph48.3 kmh 30.12 in1020.0 mb 0.00 in0.0 mm 0.00 in0.0 mm 0.77 in19.6 mm
07:30 PM 16.1°F-8.8°C 11.8°F-11.2°C 83% 21.0 mph W33.8 kmh W 31.0 mph49.9 kmh 30.12 in1020.0 mb 0.00 in0.0 mm 0.00 in0.0 mm 0.77 in19.6 mm
07:32 PM 15.9°F-8.9°C 11.4°F-11.4°C 82% 22.0 mph W35.4 kmh W 31.0 mph49.9 kmh 30.12 in1020.0 mb 0.00 in0.0 mm 0.00 in0.0 mm 0.77 in19.6 mm
07:34 PM 15.7°F-9.1°C 10.9°F-11.7°C 81% 22.0 mph W35.4 kmh W 32.0 mph51.5 kmh 30.11 in1019.6 mb 0.00 in0.0 mm 0.00 in0.0 mm 0.77 in19.6 mm
07:36 PM 15.6°F-9.1°C 11.1°F-11.6°C 82% 22.0 mph WSW35.4 kmh WSW 32.0 mph51.5 kmh 30.11 in1019.6 mb 0.00 in0.0 mm 0.00 in0.0 mm 0.77 in19.6 mm
07:38 PM 15.5°F-9.2°C 10.7°F-11.8°C 81% 23.0 mph WSW37.0 kmh WSW 32.0 mph51.5 kmh 30.11 in1019.6 mb 0.00 in0.0 mm 0.00 in0.0 mm 0.77 in19.6 mm
07:40 PM 15.5°F-9.2°C 10.7°F-11.8°C 81% 23.0 mph WSW37.0 kmh WSW 33.0 mph53.1 kmh 30.11 in1019.6 mb 0.00 in0.0 mm 0.00 in0.0 mm 0.77 in19.6 mm
07:42 PM 15.5°F-9.2°C 11.0°F-11.7°C 82% 23.0 mph WSW37.0 kmh WSW 33.0 mph53.1 kmh 30.11 in1019.6 mb 0.00 in0.0 mm 0.00 in0.0 mm 0.77 in19.6 mm
07:44 PM 15.6°F-9.1°C 11.1°F-11.6°C 82% 23.0 mph WSW37.0 kmh WSW 33.0 mph53.1 kmh 30.12 in1020.0 mb 0.00 in0.0 mm 0.00 in0.0 mm 0.77 in19.6 mm
07:46 PM 15.6°F-9.1°C 11.4°F-11.4°C 83% 22.0 mph W35.4 kmh W 33.0 mph53.1 kmh 30.12 in1020.0 mb 0.00 in0.0 mm 0.00 in0.0 mm 0.77 in19.6 mm
07:48 PM 15.4°F-9.2°C 10.6°F-11.9°C 81% 22.0 mph W35.4 kmh W 33.0 mph53.1 kmh 30.11 in1019.6 mb 0.00 in0.0 mm 0.00 in0.0 mm 0.77 in19.6 mm
07:50 PM 15.3°F-9.3°C 10.5°F-11.9°C 81% 22.0 mph W35.4 kmh W 33.0 mph53.1 kmh 30.11 in1019.6 mb 0.00 in0.0 mm 0.00 in0.0 mm 0.77 in19.6 mm
07:52 PM 15.2°F-9.3°C 10.7°F-11.8°C 82% 23.0 mph W37.0 kmh W 33.0 mph53.1 kmh 30.11 in1019.6 mb 0.00 in0.0 mm 0.00 in0.0 mm 0.77 in19.6 mm
07:54 PM 15.2°F-9.3°C 10.4°F-12.0°C 81% 24.0 mph W38.6 kmh W 35.0 mph56.3 kmh 30.11 in1019.6 mb 0.00 in0.0 mm 0.00 in0.0 mm 0.77 in19.6 mm
07:56 PM 15.2°F-9.3°C 10.1°F-12.2°C 80% 25.0 mph W40.2 kmh W 35.0 mph56.3 kmh 30.12 in1020.0 mb 0.00 in0.0 mm 0.00 in0.0 mm 0.77 in19.6 mm
07:58 PM 15.2°F-9.3°C 10.1°F-12.2°C 80% 25.0 mph W40.2 kmh W 35.0 mph56.3 kmh 30.12 in1020.0 mb 0.00 in0.0 mm 0.00 in0.0 mm 0.77 in19.6 mm
08:00 PM 15.1°F-9.4°C 10.0°F-12.2°C 80% 25.0 mph W40.2 kmh W 35.0 mph56.3 kmh 30.12 in1020.0 mb 0.00 in0.0 mm 0.00 in0.0 mm 0.77 in19.6 mm
08:02 PM 15.0°F-9.4°C 9.9°F-12.3°C 80% 25.0 mph W40.2 kmh W 35.0 mph56.3 kmh 30.12 in1020.0 mb 0.00 in0.0 mm 0.00 in0.0 mm 0.77 in19.6 mm
08:04 PM 15.0°F-9.4°C 9.9°F-12.3°C 80% 25.0 mph W40.2 kmh W 33.0 mph53.1 kmh 30.12 in1020.0 mb 0.00 in0.0 mm 0.00 in0.0 mm 0.77 in19.6 mm
08:06 PM 15.0°F-9.4°C 9.9°F-12.3°C 80% 23.0 mph W37.0 kmh W 33.0 mph53.1 kmh 30.12 in1020.0 mb 0.00 in0.0 mm 0.00 in0.0 mm 0.77 in19.6 mm
08:08 PM 14.9°F-9.5°C 9.8°F-12.3°C 80% 24.0 mph W38.6 kmh W 33.0 mph53.1 kmh 30.12 in1020.0 mb 0.00 in0.0 mm 0.00 in0.0 mm 0.77 in19.6 mm
08:10 PM 14.9°F-9.5°C 10.1°F-12.2°C 81% 24.0 mph W38.6 kmh W 33.0 mph53.1 kmh 30.12 in1020.0 mb 0.00 in0.0 mm 0.00 in0.0 mm 0.77 in19.6 mm
08:12 PM 14.9°F-9.5°C 10.4°F-12.0°C 82% 23.0 mph W37.0 kmh W 33.0 mph53.1 kmh 30.12 in1020.0 mb 0.00 in0.0 mm 0.00 in0.0 mm 0.77 in19.6 mm
08:14 PM 14.9°F-9.5°C 10.7°F-11.8°C 83% 23.0 mph W37.0 kmh W 31.0 mph49.9 kmh 30.12 in1020.0 mb 0.00 in0.0 mm 0.00 in0.0 mm 0.77 in19.6 mm
08:16 PM 14.8°F-9.6°C 10.3°F-12.1°C 82% 23.0 mph W37.0 kmh W 32.0 mph51.5 kmh 30.11 in1019.6 mb 0.00 in0.0 mm 0.00 in0.0 mm 0.77 in19.6 mm
08:18 PM 14.5°F-9.7°C 9.5°F-12.5°C 80% 23.0 mph W37.0 kmh W 33.0 mph53.1 kmh 30.11 in1019.6 mb 0.00 in0.0 mm 0.00 in0.0 mm 0.77 in19.6 mm
08:20 PM 14.2°F-9.9°C 8.9°F-12.8°C 79% 24.0 mph W38.6 kmh W 33.0 mph53.1 kmh 30.11 in1019.6 mb 0.00 in0.0 mm 0.00 in0.0 mm 0.77 in19.6 mm
08:22 PM 13.9°F-10.1°C 8.6°F-13.0°C 79% 25.0 mph W40.2 kmh W 33.0 mph53.1 kmh 30.12 in1020.0 mb 0.00 in0.0 mm 0.00 in0.0 mm 0.77 in19.6 mm
08:24 PM 13.6°F-10.2°C 8.6°F-13.0°C 80% 26.0 mph W41.8 kmh W 33.0 mph53.1 kmh 30.12 in1020.0 mb 0.00 in0.0 mm 0.00 in0.0 mm 0.77 in19.6 mm
08:26 PM 13.4°F-10.3°C 8.4°F-13.1°C 80% 26.0 mph W41.8 kmh W 33.0 mph53.1 kmh 30.12 in1020.0 mb 0.00 in0.0 mm 0.00 in0.0 mm 0.77 in19.6 mm
08:28 PM 13.2°F-10.4°C 8.2°F-13.2°C 80% 25.0 mph WSW40.2 kmh WSW 33.0 mph53.1 kmh 30.12 in1020.0 mb 0.00 in0.0 mm 0.00 in0.0 mm 0.77 in19.6 mm
08:30 PM 13.3°F-10.4°C 8.8°F-12.9°C 82% 25.0 mph W40.2 kmh W 33.0 mph53.1 kmh 30.12 in1020.0 mb 0.00 in0.0 mm 0.00 in0.0 mm 0.77 in19.6 mm
08:32 PM 13.2°F-10.4°C 8.7°F-12.9°C 82% 23.0 mph WSW37.0 kmh WSW 32.0 mph51.5 kmh 30.12 in1020.0 mb 0.00 in0.0 mm 0.00 in0.0 mm 0.77 in19.6 mm
08:34 PM 12.9°F-10.6°C 8.2°F-13.2°C 81% 23.0 mph W37.0 kmh W 33.0 mph53.1 kmh 30.13 in1020.3 mb 0.00 in0.0 mm 0.00 in0.0 mm 0.77 in19.6 mm
08:36 PM 12.8°F-10.7°C 7.8°F-13.4°C 80% 24.0 mph W38.6 kmh W 33.0 mph53.1 kmh 30.13 in1020.3 mb 0.00 in0.0 mm 0.00 in0.0 mm 0.77 in19.6 mm
08:38 PM 12.7°F-10.7°C 7.4°F-13.7°C 79% 24.0 mph W38.6 kmh W 35.0 mph56.3 kmh 30.13 in1020.3 mb 0.00 in0.0 mm 0.00 in0.0 mm 0.77 in19.6 mm
08:40 PM 12.6°F-10.8°C 7.0°F-13.9°C 78% 25.0 mph W40.2 kmh W 35.0 mph56.3 kmh 30.13 in1020.3 mb 0.00 in0.0 mm 0.00 in0.0 mm 0.77 in19.6 mm
08:42 PM 12.5°F-10.8°C 7.2°F-13.8°C 79% 26.0 mph W41.8 kmh W 35.0 mph56.3 kmh 30.13 in1020.3 mb 0.00 in0.0 mm 0.00 in0.0 mm 0.77 in19.6 mm
08:44 PM 12.5°F-10.8°C 7.2°F-13.8°C 79% 26.0 mph W41.8 kmh W 35.0 mph56.3 kmh 30.13 in1020.3 mb 0.00 in0.0 mm 0.00 in0.0 mm 0.77 in19.6 mm
08:46 PM 12.5°F-10.8°C 7.2°F-13.8°C 79% 25.0 mph W40.2 kmh W 35.0 mph56.3 kmh 30.14 in1020.7 mb 0.00 in0.0 mm 0.00 in0.0 mm 0.77 in19.6 mm
08:48 PM 12.5°F-10.8°C 7.2°F-13.8°C 79% 25.0 mph W40.2 kmh W 35.0 mph56.3 kmh 30.14 in1020.7 mb 0.00 in0.0 mm 0.00 in0.0 mm 0.77 in19.6 mm
08:50 PM 12.5°F-10.8°C 7.2°F-13.8°C 79% 25.0 mph W40.2 kmh W 35.0 mph56.3 kmh 30.14 in1020.7 mb 0.00 in0.0 mm 0.00 in0.0 mm 0.77 in19.6 mm
08:52 PM 11.9°F-11.2°C 7.2°F-13.8°C 81% 25.0 mph W40.2 kmh W 35.0 mph56.3 kmh 30.14 in1020.7 mb 0.00 in0.0 mm 0.00 in0.0 mm 0.77 in19.6 mm
08:54 PM 11.9°F-11.2°C 7.2°F-13.8°C 81% 25.0 mph W40.2 kmh W 35.0 mph56.3 kmh 30.14 in1020.7 mb 0.00 in0.0 mm 0.00 in0.0 mm 0.77 in19.6 mm
08:56 PM 11.9°F-11.2°C 7.5°F-13.6°C 82% 25.0 mph W40.2 kmh W 35.0 mph56.3 kmh 30.14 in1020.7 mb 0.00 in0.0 mm 0.00 in0.0 mm 0.77 in19.6 mm
08:58 PM 11.9°F-11.2°C 7.5°F-13.6°C 82% 22.0 mph W35.4 kmh W 30.0 mph48.3 kmh 30.14 in1020.7 mb 0.00 in0.0 mm 0.00 in0.0 mm 0.77 in19.6 mm
09:00 PM 11.9°F-11.2°C 7.7°F-13.5°C 83% 22.0 mph W35.4 kmh W 30.0 mph48.3 kmh 30.14 in1020.7 mb 0.00 in0.0 mm 0.00 in0.0 mm 0.77 in19.6 mm
09:02 PM 11.8°F-11.2°C 7.4°F-13.7°C 82% 22.0 mph W35.4 kmh W 30.0 mph48.3 kmh 30.14 in1020.7 mb 0.00 in0.0 mm 0.00 in0.0 mm 0.77 in19.6 mm
09:04 PM 11.7°F-11.3°C 7.5°F-13.6°C 83% 23.0 mph W37.0 kmh W 30.0 mph48.3 kmh 30.14 in1020.7 mb 0.00 in0.0 mm 0.00 in0.0 mm 0.77 in19.6 mm
09:06 PM 11.8°F-11.2°C 7.6°F-13.6°C 83% 23.0 mph W37.0 kmh W 30.0 mph48.3 kmh 30.14 in1020.7 mb 0.00 in0.0 mm 0.00 in0.0 mm 0.77 in19.6 mm
09:08 PM 11.9°F-11.2°C 7.5°F-13.6°C 82% 23.0 mph W37.0 kmh W 30.0 mph48.3 kmh 30.14 in1020.7 mb 0.00 in0.0 mm 0.00 in0.0 mm 0.77 in19.6 mm
09:10 PM 12.0°F-11.1°C 7.6°F-13.6°C 82% 23.0 mph W37.0 kmh W 30.0 mph48.3 kmh 30.14 in1020.7 mb 0.00 in0.0 mm 0.00 in0.0 mm 0.77 in19.6 mm
09:12 PM 11.8°F-11.2°C 6.8°F-14.0°C 80% 23.0 mph W37.0 kmh W 31.0 mph49.9 kmh 30.14 in1020.7 mb 0.00 in0.0 mm 0.00 in0.0 mm 0.77 in19.6 mm
09:14 PM 11.7°F-11.3°C 6.7°F-14.1°C 80% 23.0 mph W37.0 kmh W 31.0 mph49.9 kmh 30.14 in1020.7 mb 0.00 in0.0 mm 0.00 in0.0 mm 0.77 in19.6 mm
09:16 PM 11.7°F-11.3°C 6.7°F-14.1°C 80% 23.0 mph W37.0 kmh W 31.0 mph49.9 kmh 30.14 in1020.7 mb 0.00 in0.0 mm 0.00 in0.0 mm 0.77 in19.6 mm
09:18 PM 11.7°F-11.3°C 6.4°F-14.2°C 79% 23.0 mph W37.0 kmh W 34.0 mph54.7 kmh 30.14 in1020.7 mb 0.00 in0.0 mm 0.00 in0.0 mm 0.77 in19.6 mm
09:20 PM 11.6°F-11.3°C 6.3°F-14.3°C 79% 24.0 mph W38.6 kmh W 34.0 mph54.7 kmh 30.15 in1021.0 mb 0.00 in0.0 mm 0.00 in0.0 mm 0.77 in19.6 mm
09:22 PM 11.5°F-11.4°C 6.0°F-14.4°C 78% 24.0 mph W38.6 kmh W 34.0 mph54.7 kmh 30.15 in1021.0 mb 0.00 in0.0 mm 0.00 in0.0 mm 0.77 in19.6 mm
09:24 PM 11.5°F-11.4°C 6.2°F-14.3°C 79% 24.0 mph W38.6 kmh W 34.0 mph54.7 kmh 30.15 in1021.0 mb 0.00 in0.0 mm 0.00 in0.0 mm 0.77 in19.6 mm
09:26 PM 11.4°F-11.4°C 6.2°F-14.3°C 79% 24.0 mph W38.6 kmh W 34.0 mph54.7 kmh 30.15 in1021.0 mb 0.00 in0.0 mm 0.00 in0.0 mm 0.77 in19.6 mm
09:28 PM 11.5°F-11.4°C 6.5°F-14.2°C 80% 24.0 mph W38.6 kmh W 32.0 mph51.5 kmh 30.15 in1021.0 mb 0.00 in0.0 mm 0.00 in0.0 mm 0.77 in19.6 mm
09:30 PM 11.6°F-11.3°C 6.6°F-14.1°C 80% 23.0 mph W37.0 kmh W 30.0 mph48.3 kmh 30.15 in1021.0 mb 0.00 in0.0 mm 0.00 in0.0 mm 0.77 in19.6 mm
09:32 PM 11.6°F-11.3°C 6.6°F-14.1°C 80% 22.0 mph W35.4 kmh W 30.0 mph48.3 kmh 30.15 in1021.0 mb 0.00 in0.0 mm 0.00 in0.0 mm 0.77 in19.6 mm
09:34 PM 11.6°F-11.3°C 6.9°F-13.9°C 81% 22.0 mph W35.4 kmh W 29.0 mph46.7 kmh 30.15 in1021.0 mb 0.00 in0.0 mm 0.00 in0.0 mm 0.77 in19.6 mm
09:36 PM 11.6°F-11.3°C 7.2°F-13.8°C 82% 21.0 mph W33.8 kmh W 29.0 mph46.7 kmh 30.15 in1021.0 mb 0.00 in0.0 mm 0.00 in0.0 mm 0.77 in19.6 mm
09:38 PM 11.6°F-11.3°C 6.3°F-14.3°C 79% 21.0 mph W33.8 kmh W 29.0 mph46.7 kmh 30.15 in1021.0 mb 0.00 in0.0 mm 0.00 in0.0 mm 0.77 in19.6 mm
09:40 PM 11.5°F-11.4°C 6.2°F-14.3°C 79% 22.0 mph W35.4 kmh W 29.0 mph46.7 kmh 30.15 in1021.0 mb 0.00 in0.0 mm 0.00 in0.0 mm 0.77 in19.6 mm
09:42 PM 11.4°F-11.4°C 6.4°F-14.2°C 80% 22.0 mph W35.4 kmh W 31.0 mph49.9 kmh 30.15 in1021.0 mb 0.00 in0.0 mm 0.00 in0.0 mm 0.77 in19.6 mm
09:44 PM 11.2°F-11.6°C 6.2°F-14.3°C 80% 22.0 mph W35.4 kmh W 31.0 mph49.9 kmh 30.15 in1021.0 mb 0.00 in0.0 mm 0.00 in0.0 mm 0.77 in19.6 mm
09:46 PM 11.1°F-11.6°C 6.1°F-14.4°C 80% 22.0 mph W35.4 kmh W 31.0 mph49.9 kmh 30.15 in1021.0 mb 0.00 in0.0 mm 0.00 in0.0 mm 0.77 in19.6 mm
09:48 PM 11.1°F-11.6°C 5.9°F-14.5°C 79% 22.0 mph W35.4 kmh W 31.0 mph49.9 kmh 30.15 in1021.0 mb 0.00 in0.0 mm 0.00 in0.0 mm 0.77 in19.6 mm
09:50 PM 10.9°F-11.7°C 5.4°F-14.8°C 78% 22.0 mph W35.4 kmh W 31.0 mph49.9 kmh 30.15 in1021.0 mb 0.00 in0.0 mm 0.00 in0.0 mm 0.77 in19.6 mm
09:52 PM 10.8°F-11.8°C 5.3°F-14.8°C 78% 22.0 mph W35.4 kmh W 28.0 mph45.1 kmh 30.16 in1021.3 mb 0.00 in0.0 mm 0.00 in0.0 mm 0.77 in19.6 mm
09:54 PM 10.9°F-11.7°C 5.7°F-14.6°C 79% 22.0 mph W35.4 kmh W 28.0 mph45.1 kmh 30.15 in1021.0 mb 0.00 in0.0 mm 0.00 in0.0 mm 0.77 in19.6 mm
09:56 PM 10.9°F-11.7°C 5.9°F-14.5°C 80% 22.0 mph WNW35.4 kmh WNW 28.0 mph45.1 kmh 30.16 in1021.3 mb 0.00 in0.0 mm 0.00 in0.0 mm 0.77 in19.6 mm
09:58 PM 10.7°F-11.8°C 5.5°F-14.7°C 79% 22.0 mph W35.4 kmh W 28.0 mph45.1 kmh 30.16 in1021.3 mb 0.00 in0.0 mm 0.00 in0.0 mm 0.77 in19.6 mm
10:00 PM 10.7°F-11.8°C 5.5°F-14.7°C 79% 21.0 mph W33.8 kmh W 28.0 mph45.1 kmh 30.16 in1021.3 mb 0.00 in0.0 mm 0.00 in0.0 mm 0.77 in19.6 mm
10:02 PM 10.7°F-11.8°C 5.7°F-14.6°C 80% 21.0 mph W33.8 kmh W 28.0 mph45.1 kmh 30.16 in1021.3 mb 0.00 in0.0 mm 0.00 in0.0 mm 0.77 in19.6 mm
10:04 PM 10.6°F-11.9°C 5.4°F-14.8°C 79% 22.0 mph W35.4 kmh W 29.0 mph46.7 kmh 30.16 in1021.3 mb 0.00 in0.0 mm 0.00 in0.0 mm 0.77 in19.6 mm
10:06 PM 10.4°F-12.0°C 5.2°F-14.9°C 79% 22.0 mph W35.4 kmh W 29.0 mph46.7 kmh 30.16 in1021.3 mb 0.00 in0.0 mm 0.00 in0.0 mm 0.77 in19.6 mm
10:08 PM 10.4°F-12.0°C 5.5°F-14.7°C 80% 22.0 mph W35.4 kmh W 29.0 mph46.7 kmh 30.16 in1021.3 mb 0.00 in0.0 mm 0.00 in0.0 mm 0.77 in19.6 mm
10:10 PM 10.2°F-12.1°C 5.5°F-14.7°C 81% 23.0 mph W37.0 kmh W 29.0 mph46.7 kmh 30.16 in1021.3 mb 0.00 in0.0 mm 0.00 in0.0 mm 0.77 in19.6 mm
10:12 PM 10.1°F-12.2°C 5.7°F-14.6°C 82% 23.0 mph W37.0 kmh W 29.0 mph46.7 kmh 30.16 in1021.3 mb 0.00 in0.0 mm 0.00 in0.0 mm 0.77 in19.6 mm
10:14 PM 9.9°F-12.3°C 5.0°F-15.0°C 80% 23.0 mph W37.0 kmh W 31.0 mph49.9 kmh 30.16 in1021.3 mb 0.00 in0.0 mm 0.00 in0.0 mm 0.77 in19.6 mm
10:16 PM 9.6°F-12.4°C 3.8°F-15.7°C 77% 23.0 mph W37.0 kmh W 31.0 mph49.9 kmh 30.16 in1021.3 mb 0.00 in0.0 mm 0.00 in0.0 mm 0.77 in19.6 mm
10:18 PM 9.3°F-12.6°C 3.8°F-15.7°C 78% 24.0 mph W38.6 kmh W 31.0 mph49.9 kmh 30.16 in1021.3 mb 0.00 in0.0 mm 0.00 in0.0 mm 0.77 in19.6 mm
10:20 PM 9.2°F-12.7°C 3.7°F-15.7°C 78% 23.0 mph W37.0 kmh W 31.0 mph49.9 kmh 30.17 in1021.7 mb 0.00 in0.0 mm 0.00 in0.0 mm 0.77 in19.6 mm
10:22 PM 9.2°F-12.7°C 4.0°F-15.6°C 79% 23.0 mph W37.0 kmh W 31.0 mph49.9 kmh 30.17 in1021.7 mb 0.00 in0.0 mm 0.00 in0.0 mm 0.77 in19.6 mm
10:24 PM 9.1°F-12.7°C 3.6°F-15.8°C 78% 22.0 mph W35.4 kmh W 30.0 mph48.3 kmh 30.17 in1021.7 mb 0.00 in0.0 mm 0.00 in0.0 mm 0.77 in19.6 mm
10:26 PM 8.9°F-12.8°C 3.4°F-15.9°C 78% 23.0 mph W37.0 kmh W 30.0 mph48.3 kmh 30.17 in1021.7 mb 0.00 in0.0 mm 0.00 in0.0 mm 0.77 in19.6 mm
10:28 PM 8.8°F-12.9°C 3.3°F-15.9°C 78% 22.0 mph W35.4 kmh W 30.0 mph48.3 kmh 30.17 in1021.7 mb 0.00 in0.0 mm 0.00 in0.0 mm 0.77 in19.6 mm
10:30 PM 8.9°F-12.8°C 3.7°F-15.7°C 79% 22.0 mph W35.4 kmh W 30.0 mph48.3 kmh 30.18 in1022.0 mb 0.00 in0.0 mm 0.00 in0.0 mm 0.77 in19.6 mm
10:32 PM 8.9°F-12.8°C 3.7°F-15.7°C 79% 22.0 mph WNW35.4 kmh WNW 30.0 mph48.3 kmh 30.17 in1021.7 mb 0.00 in0.0 mm 0.00 in0.0 mm 0.77 in19.6 mm
10:34 PM 8.7°F-12.9°C 3.2°F-16.0°C 78% 22.0 mph WNW35.4 kmh WNW 30.0 mph48.3 kmh 30.18 in1022.0 mb 0.00 in0.0 mm 0.00 in0.0 mm 0.77 in19.6 mm
10:36 PM 8.6°F-13.0°C 3.1°F-16.1°C 78% 22.0 mph WNW35.4 kmh WNW 30.0 mph48.3 kmh 30.18 in1022.0 mb 0.00 in0.0 mm 0.00 in0.0 mm 0.77 in19.6 mm
10:38 PM 8.7°F-12.9°C 3.5°F-15.8°C 79% 21.0 mph WNW33.8 kmh WNW 29.0 mph46.7 kmh 30.18 in1022.0 mb 0.00 in0.0 mm 0.00 in0.0 mm 0.77 in19.6 mm
10:40 PM 8.7°F-12.9°C 3.5°F-15.8°C 79% 21.0 mph WNW33.8 kmh WNW 29.0 mph46.7 kmh 30.18 in1022.0 mb 0.00 in0.0 mm 0.00 in0.0 mm 0.77 in19.6 mm
10:42 PM 8.6°F-13.0°C 3.4°F-15.9°C 79% 22.0 mph WNW35.4 kmh WNW 29.0 mph46.7 kmh 30.18 in1022.0 mb 0.00 in0.0 mm 0.00 in0.0 mm 0.77 in19.6 mm
10:44 PM 8.7°F-12.9°C 3.5°F-15.8°C 79% 21.0 mph WNW33.8 kmh WNW 29.0 mph46.7 kmh 30.18 in1022.0 mb 0.00 in0.0 mm 0.00 in0.0 mm 0.77 in19.6 mm
10:46 PM 8.5°F-13.1°C 3.3°F-15.9°C 79% 21.0 mph W33.8 kmh W 29.0 mph46.7 kmh 30.18 in1022.0 mb 0.00 in0.0 mm 0.00 in0.0 mm 0.77 in19.6 mm
10:48 PM 8.4°F-13.1°C 3.2°F-16.0°C 79% 21.0 mph W33.8 kmh W 29.0 mph46.7 kmh 30.18 in1022.0 mb 0.00 in0.0 mm 0.00 in0.0 mm 0.77 in19.6 mm
10:50 PM 8.4°F-13.1°C 3.2°F-16.0°C 79% 22.0 mph WNW35.4 kmh WNW 28.0 mph45.1 kmh 30.18 in1022.0 mb 0.00 in0.0 mm 0.00 in0.0 mm 0.77 in19.6 mm
10:52 PM 8.5°F-13.1°C 3.3°F-15.9°C 79% 21.0 mph WNW33.8 kmh WNW 28.0 mph45.1 kmh 30.18 in1022.0 mb 0.00 in0.0 mm 0.00 in0.0 mm 0.77 in19.6 mm
10:54 PM 8.3°F-13.2°C 3.1°F-16.1°C 79% 22.0 mph WNW35.4 kmh WNW 29.0 mph46.7 kmh 30.18 in1022.0 mb 0.00 in0.0 mm 0.00 in0.0 mm 0.77 in19.6 mm
10:56 PM 8.3°F-13.2°C 3.1°F-16.1°C 79% 21.0 mph WNW33.8 kmh WNW 29.0 mph46.7 kmh 30.18 in1022.0 mb 0.00 in0.0 mm 0.00 in0.0 mm 0.77 in19.6 mm
10:58 PM 8.3°F-13.2°C 3.1°F-16.1°C 79% 21.0 mph WNW33.8 kmh WNW 29.0 mph46.7 kmh 30.18 in1022.0 mb 0.00 in0.0 mm 0.00 in0.0 mm 0.77 in19.6 mm
11:00 PM 8.3°F-13.2°C 3.1°F-16.1°C 79% 21.0 mph WNW33.8 kmh WNW 29.0 mph46.7 kmh 30.18 in1022.0 mb 0.00 in0.0 mm 0.00 in0.0 mm 0.77 in19.6 mm
11:02 PM 8.3°F-13.2°C 3.1°F-16.1°C 79% 21.0 mph WNW33.8 kmh WNW 29.0 mph46.7 kmh 30.18 in1022.0 mb 0.00 in0.0 mm 0.00 in0.0 mm 0.77 in19.6 mm
11:04 PM 8.3°F-13.2°C 3.1°F-16.1°C 79% 21.0 mph WNW33.8 kmh WNW 29.0 mph46.7 kmh 30.18 in1022.0 mb 0.00 in0.0 mm 0.00 in0.0 mm 0.77 in19.6 mm
11:06 PM 8.0°F-13.3°C 2.8°F-16.2°C 79% 21.0 mph WNW33.8 kmh WNW 29.0 mph46.7 kmh 30.18 in1022.0 mb 0.00 in0.0 mm 0.00 in0.0 mm 0.77 in19.6 mm
11:08 PM 8.0°F-13.3°C 2.8°F-16.2°C 79% 21.0 mph WNW33.8 kmh WNW 29.0 mph46.7 kmh 30.18 in1022.0 mb 0.00 in0.0 mm 0.00 in0.0 mm 0.77 in19.6 mm
11:10 PM 8.0°F-13.3°C 2.8°F-16.2°C 79% 21.0 mph WNW33.8 kmh WNW 29.0 mph46.7 kmh 30.18 in1022.0 mb 0.00 in0.0 mm 0.00 in0.0 mm 0.77 in19.6 mm
11:12 PM 7.8°F-13.4°C 2.4°F-16.4°C 78% 20.0 mph W32.2 kmh W 28.0 mph45.1 kmh 30.18 in1022.0 mb 0.00 in0.0 mm 0.00 in0.0 mm 0.77 in19.6 mm
11:14 PM 7.6°F-13.6°C 1.9°F-16.7°C 77% 21.0 mph W33.8 kmh W 32.0 mph51.5 kmh 30.18 in1022.0 mb 0.00 in0.0 mm 0.00 in0.0 mm 0.77 in19.6 mm
11:16 PM 7.4°F-13.7°C 1.7°F-16.8°C 77% 22.0 mph W35.4 kmh W 32.0 mph51.5 kmh 30.18 in1022.0 mb 0.00 in0.0 mm 0.00 in0.0 mm 0.77 in19.6 mm
11:18 PM 7.4°F-13.7°C 2.0°F-16.7°C 78% 22.0 mph WNW35.4 kmh WNW 32.0 mph51.5 kmh 30.18 in1022.0 mb 0.00 in0.0 mm 0.00 in0.0 mm 0.77 in19.6 mm
11:20 PM 7.4°F-13.7°C 2.3°F-16.5°C 79% 23.0 mph WNW37.0 kmh WNW 32.0 mph51.5 kmh 30.18 in1022.0 mb 0.00 in0.0 mm 0.00 in0.0 mm 0.77 in19.6 mm
11:22 PM 7.4°F-13.7°C 2.3°F-16.5°C 79% 23.0 mph WNW37.0 kmh WNW 32.0 mph51.5 kmh 30.18 in1022.0 mb 0.00 in0.0 mm 0.00 in0.0 mm 0.77 in19.6 mm
11:24 PM 7.4°F-13.7°C 2.3°F-16.5°C 79% 23.0 mph WNW37.0 kmh WNW 31.0 mph49.9 kmh 30.18 in1022.0 mb 0.00 in0.0 mm 0.00 in0.0 mm 0.77 in19.6 mm
11:26 PM 7.4°F-13.7°C 2.3°F-16.5°C 79% 22.0 mph W35.4 kmh W 31.0 mph49.9 kmh 30.19 in1022.4 mb 0.00 in0.0 mm 0.00 in0.0 mm 0.77 in19.6 mm
11:28 PM 7.4°F-13.7°C 2.3°F-16.5°C 79% 21.0 mph W33.8 kmh W 31.0 mph49.9 kmh 30.19 in1022.4 mb 0.00 in0.0 mm 0.00 in0.0 mm 0.77 in19.6 mm
11:30 PM 7.3°F-13.7°C 1.9°F-16.7°C 78% 20.0 mph W32.2 kmh W 27.0 mph43.5 kmh 30.19 in1022.4 mb 0.00 in0.0 mm 0.00 in0.0 mm 0.77 in19.6 mm
11:32 PM 7.4°F-13.7°C 2.5°F-16.4°C 80% 20.0 mph W32.2 kmh W 27.0 mph43.5 kmh 30.19 in1022.4 mb 0.00 in0.0 mm 0.00 in0.0 mm 0.77 in19.6 mm
11:34 PM 7.4°F-13.7°C 2.5°F-16.4°C 80% 19.0 mph WNW30.6 kmh WNW 26.0 mph41.8 kmh 30.20 in1022.7 mb 0.00 in0.0 mm 0.00 in0.0 mm 0.77 in19.6 mm
11:36 PM 7.4°F-13.7°C 2.8°F-16.2°C 81% 18.0 mph WNW29.0 kmh WNW 26.0 mph41.8 kmh 30.19 in1022.4 mb 0.00 in0.0 mm 0.00 in0.0 mm 0.77 in19.6 mm
11:38 PM 7.5°F-13.6°C 2.9°F-16.2°C 81% 18.0 mph WNW29.0 kmh WNW 25.0 mph40.2 kmh 30.20 in1022.7 mb 0.00 in0.0 mm 0.00 in0.0 mm 0.77 in19.6 mm
11:40 PM 7.5°F-13.6°C 2.9°F-16.2°C 81% 17.0 mph W27.4 kmh W 24.0 mph38.6 kmh 30.20 in1022.7 mb 0.00 in0.0 mm 0.00 in0.0 mm 0.77 in19.6 mm
11:42 PM 7.6°F-13.6°C 3.3°F-15.9°C 82% 17.0 mph W27.4 kmh W 24.0 mph38.6 kmh 30.20 in1022.7 mb 0.00 in0.0 mm 0.00 in0.0 mm 0.77 in19.6 mm
11:44 PM 7.5°F-13.6°C 3.2°F-16.0°C 82% 17.0 mph W27.4 kmh W 26.0 mph41.8 kmh 30.20 in1022.7 mb 0.00 in0.0 mm 0.00 in0.0 mm 0.77 in19.6 mm
11:46 PM 7.4°F-13.7°C 2.5°F-16.4°C 80% 18.0 mph W29.0 kmh W 27.0 mph43.5 kmh 30.20 in1022.7 mb 0.00 in0.0 mm 0.00 in0.0 mm 0.77 in19.6 mm
11:48 PM 7.1°F-13.8°C 2.2°F-16.6°C 80% 19.0 mph W30.6 kmh W 27.0 mph43.5 kmh 30.20 in1022.7 mb 0.00 in0.0 mm 0.00 in0.0 mm 0.77 in19.6 mm
11:50 PM 6.9°F-13.9°C 1.8°F-16.8°C 79% 19.0 mph W30.6 kmh W 28.0 mph45.1 kmh 30.20 in1022.7 mb 0.00 in0.0 mm 0.00 in0.0 mm 0.77 in19.6 mm
11:52 PM 6.9°F-13.9°C 2.0°F-16.7°C 80% 20.0 mph W32.2 kmh W 28.0 mph45.1 kmh 30.20 in1022.7 mb 0.00 in0.0 mm 0.00 in0.0 mm 0.77 in19.6 mm
11:54 PM 6.9°F-13.9°C 1.8°F-16.8°C 79% 21.0 mph W33.8 kmh W 28.0 mph45.1 kmh 30.20 in1022.7 mb 0.00 in0.0 mm 0.00 in0.0 mm 0.77 in19.6 mm
11:56 PM 6.8°F-14.0°C 1.7°F-16.8°C 79% 21.0 mph W33.8 kmh W 28.0 mph45.1 kmh 30.20 in1022.7 mb 0.00 in0.0 mm 0.00 in0.0 mm 0.77 in19.6 mm
11:58 PM 6.8°F-14.0°C 1.7°F-16.8°C 79% 21.0 mph W33.8 kmh W 28.0 mph45.1 kmh 30.20 in1022.7 mb 0.00 in0.0 mm 0.00 in0.0 mm 0.77 in19.6 mm